HBJFP SKBO-GOBD
Flight info
| Callsign | HBJFP |
|---|---|
| Flight time | 7h 5m |
| Altitude | 39000 |
| Route | MAVDA UW20 AUC DCT MIQ UN669 MEBUK/N0512F410 UN669 ELJEZ/M090F410 DCT 2150N DCT 2340N DCT 22N036W DCT ERNEK/N0512F410 DCT EVKAS DCT BVT DCT MOGSA DCT PIVSA |
| Aircraft | GLF6/M-SBDE2E3FGHIJ4J5M1RWXY/LB1D1 |
Departure
| Time | 2026-04-25 12:42 |
|---|---|
| Airport | El Dorado International Airport (SKBO) |
Arrival
| Time | 2026-04-25 19:47 |
|---|---|
| Airport | Blaise Diagne International Airport (GOBD) |
| Time | Latitude | Longitude | Altitude | Speed | Heading |
|---|---|---|---|---|---|
| 2026-04-25 11:27 | 4.69134 | -74.13127 | 8371 ft | 0 kts | 37° |
| 2026-04-25 12:13 | 4.69139 | -74.13124 | 8371 ft | 3 kts | 37° |
| 2026-04-25 12:13 | 4.69188 | -74.13087 | 8371 ft | 14 kts | 37° |
| 2026-04-25 12:14 | 4.69286 | -74.13013 | 8371 ft | 13 kts | 36° |
| 2026-04-25 12:14 | 4.69344 | -74.13019 | 8371 ft | 11 kts | 308° |
| 2026-04-25 12:14 | 4.69391 | -74.13086 | 8371 ft | 5 kts | 304° |
| 2026-04-25 12:14 | 4.69423 | -74.13131 | 8371 ft | 10 kts | 308° |
| 2026-04-25 12:15 | 4.69477 | -74.13198 | 8371 ft | 14 kts | 308° |
| 2026-04-25 12:15 | 4.69549 | -74.13292 | 8371 ft | 19 kts | 307° |
| 2026-04-25 12:15 | 4.69637 | -74.13411 | 8370 ft | 23 kts | 307° |
| 2026-04-25 12:15 | 4.69744 | -74.13552 | 8370 ft | 27 kts | 308° |
| 2026-04-25 12:16 | 4.69867 | -74.13710 | 8370 ft | 29 kts | 308° |
| 2026-04-25 12:16 | 4.69954 | -74.13825 | 8370 ft | 16 kts | 307° |
| 2026-04-25 12:16 | 4.69992 | -74.13876 | 8370 ft | 4 kts | 306° |
| 2026-04-25 12:16 | 4.70011 | -74.13902 | 8370 ft | 6 kts | 306° |
| 2026-04-25 12:17 | 4.70023 | -74.13918 | 8370 ft | 0 kts | 306° |
| 2026-04-25 12:19 | 4.70026 | -74.13921 | 8370 ft | 1 kts | 306° |
| 2026-04-25 12:19 | 4.70047 | -74.13950 | 8369 ft | 5 kts | 306° |
| 2026-04-25 12:19 | 4.70077 | -74.13991 | 8369 ft | 8 kts | 306° |
| 2026-04-25 12:20 | 4.70119 | -74.14047 | 8369 ft | 11 kts | 308° |
| 2026-04-25 12:20 | 4.70174 | -74.14117 | 8369 ft | 14 kts | 308° |
| 2026-04-25 12:20 | 4.70241 | -74.14201 | 8369 ft | 16 kts | 307° |
| 2026-04-25 12:20 | 4.70311 | -74.14295 | 8369 ft | 16 kts | 306° |
| 2026-04-25 12:21 | 4.70380 | -74.14386 | 8369 ft | 16 kts | 307° |
| 2026-04-25 12:21 | 4.70437 | -74.14480 | 8369 ft | 15 kts | 270° |
| 2026-04-25 12:21 | 4.70365 | -74.14551 | 8369 ft | 14 kts | 212° |
| 2026-04-25 12:21 | 4.70284 | -74.14610 | 8369 ft | 14 kts | 217° |
| 2026-04-25 12:22 | 4.70205 | -74.14670 | 8368 ft | 13 kts | 217° |
| 2026-04-25 12:22 | 4.70129 | -74.14727 | 8368 ft | 13 kts | 217° |
| 2026-04-25 12:22 | 4.70057 | -74.14781 | 8368 ft | 12 kts | 217° |
| 2026-04-25 12:22 | 4.69988 | -74.14833 | 8368 ft | 11 kts | 217° |
| 2026-04-25 12:23 | 4.69924 | -74.14883 | 8368 ft | 11 kts | 218° |
| 2026-04-25 12:23 | 4.69864 | -74.14931 | 8368 ft | 10 kts | 224° |
| 2026-04-25 12:23 | 4.69862 | -74.14994 | 8368 ft | 9 kts | 310° |
| 2026-04-25 12:23 | 4.69904 | -74.15043 | 8368 ft | 8 kts | 308° |
| 2026-04-25 12:24 | 4.69941 | -74.15091 | 8368 ft | 8 kts | 307° |
| 2026-04-25 12:24 | 4.69973 | -74.15134 | 8368 ft | 7 kts | 306° |
| 2026-04-25 12:24 | 4.70009 | -74.15183 | 8368 ft | 10 kts | 309° |
| 2026-04-25 12:24 | 4.70061 | -74.15249 | 8368 ft | 14 kts | 307° |
| 2026-04-25 12:25 | 4.70135 | -74.15349 | 8368 ft | 20 kts | 307° |
| 2026-04-25 12:25 | 4.70237 | -74.15483 | 8367 ft | 27 kts | 308° |
| 2026-04-25 12:25 | 4.70365 | -74.15648 | 8367 ft | 32 kts | 307° |
| 2026-04-25 12:25 | 4.70495 | -74.15823 | 8367 ft | 29 kts | 307° |
| 2026-04-25 12:26 | 4.70617 | -74.15981 | 8366 ft | 27 kts | 307° |
| 2026-04-25 12:26 | 4.70726 | -74.16124 | 8366 ft | 24 kts | 308° |
| 2026-04-25 12:26 | 4.70819 | -74.16250 | 8366 ft | 20 kts | 307° |
| 2026-04-25 12:26 | 4.70897 | -74.16354 | 8366 ft | 16 kts | 306° |
| 2026-04-25 12:27 | 4.70958 | -74.16434 | 8366 ft | 12 kts | 304° |
| 2026-04-25 12:27 | 4.71001 | -74.16493 | 8366 ft | 8 kts | 307° |
| 2026-04-25 12:27 | 4.71031 | -74.16534 | 8365 ft | 6 kts | 307° |
| 2026-04-25 12:27 | 4.71062 | -74.16575 | 8365 ft | 9 kts | 307° |
| 2026-04-25 12:28 | 4.71109 | -74.16637 | 8365 ft | 13 kts | 307° |
| 2026-04-25 12:28 | 4.71171 | -74.16718 | 8365 ft | 14 kts | 308° |
| 2026-04-25 12:28 | 4.71228 | -74.16791 | 8365 ft | 11 kts | 307° |
| 2026-04-25 12:28 | 4.71245 | -74.16855 | 8365 ft | 7 kts | 249° |
| 2026-04-25 12:29 | 4.71227 | -74.16875 | 8365 ft | 0 kts | 213° |
| 2026-04-25 12:40 | 4.71223 | -74.16878 | 8365 ft | 2 kts | 214° |
| 2026-04-25 12:40 | 4.71185 | -74.16898 | 8365 ft | 11 kts | 193° |
| 2026-04-25 12:40 | 4.71079 | -74.16888 | 8365 ft | 17 kts | 171° |
| 2026-04-25 12:41 | 4.70968 | -74.16805 | 8365 ft | 28 kts | 127° |
| 2026-04-25 12:41 | 4.70730 | -74.16492 | 8366 ft | 83 kts | 127° |
| 2026-04-25 12:41 | 4.70272 | -74.15893 | 8367 ft | 131 kts | 127° |
| 2026-04-25 12:41 | 4.69636 | -74.15063 | 8393 ft | 167 kts | 128° |
| 2026-04-25 12:42 | 4.68894 | -74.14183 | 8890 ft | 161 kts | 129° |
| 2026-04-25 12:42 | 4.68646 | -74.13895 | 9058 ft | 162 kts | 129° |
| 2026-04-25 12:42 | 4.66920 | -74.13159 | 9706 ft | 177 kts | 192° |
| 2026-04-25 12:42 | 4.65878 | -74.13789 | 10203 ft | 178 kts | 219° |
| 2026-04-25 12:43 | 4.64867 | -74.14626 | 10352 ft | 198 kts | 219° |
| 2026-04-25 12:43 | 4.63773 | -74.15527 | 10571 ft | 200 kts | 219° |
| 2026-04-25 12:43 | 4.61825 | -74.17652 | 10725 ft | 237 kts | 253° |
| 2026-04-25 12:44 | 4.61414 | -74.19332 | 10697 ft | 250 kts | 262° |
| 2026-04-25 12:44 | 4.61295 | -74.21064 | 10680 ft | 246 kts | 272° |
| 2026-04-25 12:44 | 4.62006 | -74.24527 | 11005 ft | 280 kts | 291° |
| 2026-04-25 12:45 | 4.62865 | -74.26394 | 11240 ft | 306 kts | 294° |
| 2026-04-25 12:45 | 4.63184 | -74.28466 | 12178 ft | 307 kts | 263° |
| 2026-04-25 12:45 | 4.60690 | -74.31776 | 13694 ft | 316 kts | 202° |
| 2026-04-25 12:46 | 4.58535 | -74.32268 | 14464 ft | 319 kts | 194° |
| 2026-04-25 12:46 | 4.56517 | -74.33214 | 15143 ft | 324 kts | 213° |
| 2026-04-25 12:46 | 4.54460 | -74.34203 | 15886 ft | 329 kts | 199° |
| 2026-04-25 12:46 | 4.52229 | -74.34722 | 16503 ft | 338 kts | 188° |
| 2026-04-25 12:47 | 4.49757 | -74.34817 | 16463 ft | 371 kts | 176° |
| 2026-04-25 12:47 | 4.47061 | -74.34537 | 16523 ft | 397 kts | 180° |
| 2026-04-25 12:47 | 4.44376 | -74.35164 | 17147 ft | 400 kts | 207° |
| 2026-04-25 12:47 | 4.42133 | -74.36760 | 17969 ft | 398 kts | 222° |
| 2026-04-25 12:48 | 4.40116 | -74.38670 | 18533 ft | 404 kts | 221° |
| 2026-04-25 12:48 | 4.37622 | -74.40041 | 19091 ft | 413 kts | 197° |
| 2026-04-25 12:48 | 4.34748 | -74.40285 | 19931 ft | 414 kts | 173° |
| 2026-04-25 12:48 | 4.32009 | -74.39469 | 20704 ft | 417 kts | 156° |
| 2026-04-25 12:49 | 4.29455 | -74.38071 | 21341 ft | 422 kts | 145° |
| 2026-04-25 12:49 | 4.27317 | -74.36034 | 21905 ft | 428 kts | 128° |
| 2026-04-25 12:49 | 4.25728 | -74.33510 | 22866 ft | 424 kts | 117° |
| 2026-04-25 12:49 | 4.24579 | -74.30830 | 23627 ft | 425 kts | 112° |
| 2026-04-25 12:50 | 4.23587 | -74.28011 | 24142 ft | 434 kts | 108° |
| 2026-04-25 12:50 | 4.22774 | -74.25098 | 24499 ft | 428 kts | 104° |
| 2026-04-25 12:50 | 4.22163 | -74.22182 | 24531 ft | 430 kts | 100° |
| 2026-04-25 12:50 | 4.22073 | -74.19198 | 24527 ft | 434 kts | 84° |
| 2026-04-25 12:51 | 4.22106 | -74.16174 | 24518 ft | 435 kts | 99° |
| 2026-04-25 12:51 | 4.21560 | -74.13198 | 24512 ft | 436 kts | 99° |
| 2026-04-25 12:51 | 4.21106 | -74.10166 | 24499 ft | 437 kts | 98° |
| 2026-04-25 12:51 | 4.20709 | -74.07192 | 24483 ft | 438 kts | 98° |
| 2026-04-25 12:52 | 4.20309 | -74.04082 | 24503 ft | 458 kts | 98° |
| 2026-04-25 12:52 | 4.20134 | -74.00876 | 24474 ft | 470 kts | 85° |
| 2026-04-25 12:52 | 4.21019 | -73.97726 | 24482 ft | 472 kts | 65° |
| 2026-04-25 12:52 | 4.22934 | -73.95056 | 24465 ft | 470 kts | 45° |
| 2026-04-25 12:53 | 4.25609 | -73.93230 | 24460 ft | 469 kts | 24° |
| 2026-04-25 12:53 | 4.28760 | -73.92402 | 24479 ft | 467 kts | 8° |
| 2026-04-25 12:53 | 4.32012 | -73.91943 | 24467 ft | 470 kts | 9° |
| 2026-04-25 12:53 | 4.35220 | -73.91382 | 24473 ft | 471 kts | 11° |
| 2026-04-25 12:54 | 4.38493 | -73.90769 | 24463 ft | 472 kts | 11° |
| 2026-04-25 12:54 | 4.41646 | -73.89987 | 24455 ft | 470 kts | 20° |
| 2026-04-25 12:54 | 4.44535 | -73.88426 | 24475 ft | 469 kts | 38° |
| 2026-04-25 12:54 | 4.46929 | -73.86204 | 24495 ft | 469 kts | 46° |
| 2026-04-25 12:55 | 4.49126 | -73.83785 | 24504 ft | 468 kts | 49° |
| 2026-04-25 12:55 | 4.50530 | -73.82160 | 24517 ft | 468 kts | 50° |
| 2026-04-25 12:55 | 4.53345 | -73.78831 | 24534 ft | 469 kts | 50° |
| 2026-04-25 12:55 | 4.55442 | -73.76327 | 24540 ft | 470 kts | 51° |
| 2026-04-25 12:56 | 4.57564 | -73.73788 | 25064 ft | 476 kts | 50° |
| 2026-04-25 12:56 | 4.59670 | -73.71268 | 25974 ft | 473 kts | 51° |
| 2026-04-25 12:56 | 4.61816 | -73.68697 | 26020 ft | 490 kts | 51° |
| 2026-04-25 12:56 | 4.64015 | -73.66064 | 26680 ft | 490 kts | 50° |
| 2026-04-25 12:57 | 4.66193 | -73.63456 | 27206 ft | 494 kts | 51° |
| 2026-04-25 12:57 | 4.68417 | -73.60791 | 27645 ft | 499 kts | 51° |
| 2026-04-25 12:57 | 4.70615 | -73.58158 | 28714 ft | 489 kts | 51° |
| 2026-04-25 12:57 | 4.72797 | -73.55542 | 28951 ft | 498 kts | 51° |
| 2026-04-25 12:58 | 4.75021 | -73.52875 | 29523 ft | 499 kts | 52° |
| 2026-04-25 12:58 | 4.77265 | -73.50186 | 29965 ft | 503 kts | 52° |
| 2026-04-25 12:58 | 4.79511 | -73.47495 | 30512 ft | 504 kts | 52° |
| 2026-04-25 12:58 | 4.81771 | -73.44783 | 30937 ft | 507 kts | 52° |
| 2026-04-25 12:59 | 4.84044 | -73.42059 | 31353 ft | 511 kts | 52° |
| 2026-04-25 12:59 | 4.86344 | -73.39300 | 31799 ft | 514 kts | 52° |
| 2026-04-25 12:59 | 4.88619 | -73.36571 | 32221 ft | 516 kts | 52° |
| 2026-04-25 12:59 | 4.90933 | -73.33797 | 32668 ft | 517 kts | 52° |
| 2026-04-25 13:00 | 4.93283 | -73.30979 | 32882 ft | 523 kts | 52° |
| 2026-04-25 13:00 | 4.94038 | -73.30072 | 32962 ft | 524 kts | 52° |
| 2026-04-25 13:00 | 4.97984 | -73.25337 | 33330 ft | 528 kts | 53° |
| 2026-04-25 13:00 | 5.00324 | -73.22529 | 33610 ft | 527 kts | 52° |
| 2026-04-25 13:01 | 5.02671 | -73.19711 | 33783 ft | 528 kts | 52° |
| 2026-04-25 13:01 | 5.05028 | -73.16883 | 34063 ft | 527 kts | 52° |
| 2026-04-25 13:01 | 5.07394 | -73.14042 | 34322 ft | 528 kts | 53° |
| 2026-04-25 13:01 | 5.09758 | -73.11205 | 34554 ft | 528 kts | 53° |
| 2026-04-25 13:02 | 5.12110 | -73.08379 | 34744 ft | 529 kts | 53° |
| 2026-04-25 13:02 | 5.14480 | -73.05534 | 34710 ft | 532 kts | 53° |
| 2026-04-25 13:02 | 5.19196 | -72.99869 | 34998 ft | 526 kts | 53° |
| 2026-04-25 13:03 | 5.21511 | -72.97089 | 35716 ft | 519 kts | 53° |
| 2026-04-25 13:03 | 5.23828 | -72.94303 | 36114 ft | 518 kts | 53° |
| 2026-04-25 13:03 | 5.26149 | -72.91515 | 36467 ft | 518 kts | 53° |
| 2026-04-25 13:03 | 5.28462 | -72.88735 | 36852 ft | 518 kts | 53° |
| 2026-04-25 13:04 | 5.30751 | -72.85983 | 37177 ft | 518 kts | 53° |
| 2026-04-25 13:04 | 5.33050 | -72.83221 | 37557 ft | 517 kts | 53° |
| 2026-04-25 13:04 | 5.35386 | -72.80411 | 37902 ft | 516 kts | 53° |
| 2026-04-25 13:04 | 5.37659 | -72.77678 | 38256 ft | 515 kts | 53° |
| 2026-04-25 13:05 | 5.39963 | -72.74908 | 38571 ft | 514 kts | 53° |
| 2026-04-25 13:05 | 5.42251 | -72.72155 | 38836 ft | 514 kts | 53° |
| 2026-04-25 13:05 | 5.44526 | -72.69418 | 39162 ft | 513 kts | 53° |
| 2026-04-25 13:05 | 5.46822 | -72.66655 | 39338 ft | 514 kts | 52° |
| 2026-04-25 13:06 | 5.51441 | -72.61098 | 39295 ft | 519 kts | 53° |
| 2026-04-25 13:06 | 5.56045 | -72.55557 | 39250 ft | 518 kts | 53° |
| 2026-04-25 13:07 | 5.60672 | -72.49986 | 39207 ft | 518 kts | 53° |
| 2026-04-25 13:07 | 5.65284 | -72.44431 | 39173 ft | 517 kts | 53° |
| 2026-04-25 13:08 | 5.69861 | -72.38918 | 39195 ft | 517 kts | 53° |
| 2026-04-25 13:08 | 5.74476 | -72.33357 | 39231 ft | 517 kts | 53° |
| 2026-04-25 13:09 | 5.79067 | -72.27824 | 39192 ft | 516 kts | 53° |
| 2026-04-25 13:09 | 5.83691 | -72.22248 | 39163 ft | 517 kts | 53° |
| 2026-04-25 13:10 | 5.88277 | -72.16718 | 39166 ft | 517 kts | 53° |
| 2026-04-25 13:10 | 5.92882 | -72.11162 | 39123 ft | 517 kts | 53° |
| 2026-04-25 13:11 | 5.97495 | -72.05597 | 39100 ft | 518 kts | 53° |
| 2026-04-25 13:11 | 6.02114 | -72.00021 | 39079 ft | 517 kts | 53° |
| 2026-04-25 13:12 | 6.06727 | -71.94452 | 39056 ft | 518 kts | 53° |
| 2026-04-25 13:12 | 6.10554 | -71.89830 | 39038 ft | 518 kts | 52° |
| 2026-04-25 13:13 | 6.15922 | -71.83345 | 39010 ft | 518 kts | 53° |
| 2026-04-25 13:13 | 6.20543 | -71.77760 | 38996 ft | 519 kts | 52° |
| 2026-04-25 13:14 | 6.25170 | -71.72169 | 38988 ft | 520 kts | 53° |
| 2026-04-25 13:14 | 6.29774 | -71.66599 | 38984 ft | 521 kts | 53° |
| 2026-04-25 13:15 | 6.34404 | -71.61002 | 38979 ft | 521 kts | 53° |
| 2026-04-25 13:15 | 6.39035 | -71.55396 | 38973 ft | 522 kts | 53° |
| 2026-04-25 13:16 | 6.43694 | -71.49759 | 38975 ft | 522 kts | 53° |
| 2026-04-25 13:16 | 6.48337 | -71.44138 | 38966 ft | 523 kts | 53° |
| 2026-04-25 13:17 | 6.52978 | -71.38518 | 38954 ft | 522 kts | 53° |
| 2026-04-25 13:17 | 6.57594 | -71.32923 | 38954 ft | 523 kts | 53° |
| 2026-04-25 13:18 | 6.62245 | -71.27287 | 38961 ft | 524 kts | 53° |
| 2026-04-25 13:18 | 6.66907 | -71.21637 | 38956 ft | 524 kts | 53° |
| 2026-04-25 13:19 | 6.71575 | -71.15976 | 38955 ft | 524 kts | 53° |
| 2026-04-25 13:19 | 6.74679 | -71.12212 | 38948 ft | 524 kts | 53° |
| 2026-04-25 13:20 | 6.80844 | -71.04732 | 38950 ft | 522 kts | 53° |
| 2026-04-25 13:20 | 6.85485 | -70.99097 | 38946 ft | 522 kts | 53° |
| 2026-04-25 13:21 | 6.90130 | -70.93457 | 38947 ft | 522 kts | 53° |
| 2026-04-25 13:21 | 6.94759 | -70.87834 | 38957 ft | 523 kts | 53° |
| 2026-04-25 13:22 | 6.99360 | -70.82243 | 39011 ft | 519 kts | 53° |
| 2026-04-25 13:23 | 7.06324 | -70.73779 | 39144 ft | 522 kts | 53° |
| 2026-04-25 13:23 | 7.08795 | -70.71079 | 39311 ft | 522 kts | 47° |
| 2026-04-25 13:23 | 7.11344 | -70.68463 | 39477 ft | 522 kts | 48° |
| 2026-04-25 13:23 | 7.13841 | -70.65868 | 39629 ft | 521 kts | 48° |
| 2026-04-25 13:24 | 7.16360 | -70.63245 | 39792 ft | 521 kts | 48° |
| 2026-04-25 13:24 | 7.18896 | -70.60600 | 39962 ft | 520 kts | 48° |
| 2026-04-25 13:24 | 7.21397 | -70.57990 | 40131 ft | 520 kts | 48° |
| 2026-04-25 13:24 | 7.23933 | -70.55347 | 40303 ft | 519 kts | 48° |
| 2026-04-25 13:25 | 7.26435 | -70.52736 | 40476 ft | 518 kts | 48° |
| 2026-04-25 13:25 | 7.28920 | -70.50141 | 40646 ft | 518 kts | 47° |
| 2026-04-25 13:25 | 7.31446 | -70.47504 | 40819 ft | 517 kts | 47° |
| 2026-04-25 13:25 | 7.33915 | -70.44928 | 40962 ft | 518 kts | 47° |
| 2026-04-25 13:26 | 7.36435 | -70.42297 | 40940 ft | 520 kts | 47° |
| 2026-04-25 13:26 | 7.41449 | -70.37060 | 40955 ft | 521 kts | 47° |
| 2026-04-25 13:27 | 7.46514 | -70.31767 | 40951 ft | 522 kts | 47° |
| 2026-04-25 13:27 | 7.51570 | -70.26483 | 40947 ft | 521 kts | 47° |
| 2026-04-25 13:28 | 7.56582 | -70.21242 | 40944 ft | 522 kts | 47° |
| 2026-04-25 13:28 | 7.61628 | -70.15965 | 40939 ft | 522 kts | 47° |
| 2026-04-25 13:29 | 7.66653 | -70.10707 | 40944 ft | 522 kts | 47° |
| 2026-04-25 13:29 | 7.71708 | -70.05416 | 40940 ft | 522 kts | 47° |
| 2026-04-25 13:30 | 7.79279 | -69.97488 | 40936 ft | 523 kts | 47° |
| 2026-04-25 13:31 | 7.86840 | -69.89567 | 40938 ft | 523 kts | 47° |
| 2026-04-25 13:31 | 7.91893 | -69.84269 | 40939 ft | 523 kts | 47° |
| 2026-04-25 13:32 | 7.96935 | -69.78982 | 40939 ft | 524 kts | 47° |
| 2026-04-25 13:32 | 8.02009 | -69.73659 | 40938 ft | 524 kts | 47° |
| 2026-04-25 13:33 | 8.07042 | -69.68377 | 40938 ft | 524 kts | 47° |
| 2026-04-25 13:33 | 8.12110 | -69.63058 | 40936 ft | 525 kts | 47° |
| 2026-04-25 13:34 | 8.17171 | -69.57741 | 40936 ft | 525 kts | 47° |
| 2026-04-25 13:34 | 8.22219 | -69.52438 | 40938 ft | 525 kts | 47° |
| 2026-04-25 13:35 | 8.27286 | -69.47112 | 40937 ft | 526 kts | 47° |
| 2026-04-25 13:35 | 8.32338 | -69.41800 | 40939 ft | 526 kts | 47° |
| 2026-04-25 13:36 | 8.37421 | -69.36453 | 40937 ft | 526 kts | 47° |
| 2026-04-25 13:36 | 8.42496 | -69.31113 | 40937 ft | 526 kts | 47° |
| 2026-04-25 13:37 | 8.47560 | -69.25781 | 40938 ft | 526 kts | 47° |
| 2026-04-25 13:37 | 8.52652 | -69.20418 | 40937 ft | 526 kts | 47° |
| 2026-04-25 13:38 | 8.57712 | -69.15086 | 40937 ft | 527 kts | 47° |
| 2026-04-25 13:38 | 8.62794 | -69.09730 | 40935 ft | 527 kts | 47° |
| 2026-04-25 13:39 | 8.67865 | -69.04382 | 40937 ft | 527 kts | 47° |
| 2026-04-25 13:39 | 8.72963 | -68.99004 | 40936 ft | 528 kts | 47° |
| 2026-04-25 13:40 | 8.78016 | -68.93672 | 40932 ft | 528 kts | 47° |
| 2026-04-25 13:40 | 8.83090 | -68.88315 | 40929 ft | 527 kts | 47° |
| 2026-04-25 13:41 | 8.88203 | -68.82914 | 40923 ft | 528 kts | 47° |
| 2026-04-25 13:41 | 8.93295 | -68.77532 | 40923 ft | 528 kts | 47° |
| 2026-04-25 13:42 | 8.98371 | -68.72166 | 40927 ft | 529 kts | 47° |
| 2026-04-25 13:42 | 9.03465 | -68.66779 | 40930 ft | 529 kts | 47° |
| 2026-04-25 13:43 | 9.08581 | -68.61366 | 40931 ft | 530 kts | 47° |
| 2026-04-25 13:43 | 9.13653 | -68.55997 | 40932 ft | 530 kts | 47° |
| 2026-04-25 13:44 | 9.18750 | -68.50599 | 40939 ft | 530 kts | 47° |
| 2026-04-25 13:44 | 9.23846 | -68.45200 | 40944 ft | 530 kts | 47° |
| 2026-04-25 13:45 | 9.28969 | -68.39769 | 40941 ft | 530 kts | 47° |
| 2026-04-25 13:45 | 9.34046 | -68.34386 | 40949 ft | 531 kts | 47° |
| 2026-04-25 13:46 | 9.39154 | -68.28966 | 40952 ft | 532 kts | 47° |
| 2026-04-25 13:46 | 9.44258 | -68.23548 | 40955 ft | 532 kts | 47° |
| 2026-04-25 13:47 | 9.49392 | -68.18095 | 40962 ft | 533 kts | 47° |
| 2026-04-25 13:47 | 9.54505 | -68.12665 | 40967 ft | 534 kts | 47° |
| 2026-04-25 13:48 | 9.59662 | -68.07182 | 40964 ft | 534 kts | 47° |
| 2026-04-25 13:48 | 9.64761 | -68.01762 | 40970 ft | 534 kts | 47° |
| 2026-04-25 13:49 | 9.69900 | -67.96294 | 40984 ft | 534 kts | 47° |
| 2026-04-25 13:49 | 9.75038 | -67.90825 | 40998 ft | 534 kts | 47° |
| 2026-04-25 13:50 | 9.80149 | -67.85381 | 41019 ft | 535 kts | 47° |
| 2026-04-25 13:50 | 9.85274 | -67.79922 | 41045 ft | 536 kts | 47° |
| 2026-04-25 13:51 | 9.90404 | -67.74453 | 41062 ft | 536 kts | 47° |
| 2026-04-25 13:51 | 9.95556 | -67.68959 | 41071 ft | 536 kts | 47° |
| 2026-04-25 13:52 | 10.00697 | -67.63474 | 41079 ft | 536 kts | 47° |
| 2026-04-25 13:52 | 10.05838 | -67.57986 | 41067 ft | 537 kts | 47° |
| 2026-04-25 13:53 | 10.10964 | -67.52510 | 41055 ft | 536 kts | 47° |
| 2026-04-25 13:53 | 10.16102 | -67.47020 | 41041 ft | 536 kts | 47° |
| 2026-04-25 13:54 | 10.21230 | -67.41538 | 41040 ft | 536 kts | 47° |
| 2026-04-25 13:54 | 10.26364 | -67.36046 | 41039 ft | 536 kts | 47° |
| 2026-04-25 13:55 | 10.31521 | -67.30528 | 41025 ft | 536 kts | 47° |
| 2026-04-25 13:55 | 10.36660 | -67.25025 | 41017 ft | 536 kts | 47° |
| 2026-04-25 13:56 | 10.41749 | -67.19573 | 41025 ft | 535 kts | 47° |
| 2026-04-25 13:56 | 10.46901 | -67.14053 | 41025 ft | 535 kts | 47° |
| 2026-04-25 13:57 | 10.51995 | -67.08589 | 41038 ft | 536 kts | 47° |
| 2026-04-25 13:57 | 10.57140 | -67.03069 | 41021 ft | 536 kts | 47° |
| 2026-04-25 13:58 | 10.62031 | -66.97352 | 41023 ft | 533 kts | 57° |
| 2026-04-25 13:58 | 10.66163 | -66.91143 | 41009 ft | 535 kts | 57° |
| 2026-04-25 13:59 | 10.70349 | -66.84845 | 40962 ft | 536 kts | 57° |
| 2026-04-25 13:59 | 10.74500 | -66.78596 | 40935 ft | 536 kts | 57° |
| 2026-04-25 14:00 | 10.77980 | -66.73354 | 40934 ft | 536 kts | 57° |
| 2026-04-25 14:00 | 10.82828 | -66.66048 | 40939 ft | 536 kts | 57° |
| 2026-04-25 14:01 | 10.86999 | -66.59759 | 40939 ft | 535 kts | 57° |
| 2026-04-25 14:01 | 10.91139 | -66.53513 | 40940 ft | 536 kts | 57° |
| 2026-04-25 14:02 | 10.95302 | -66.47227 | 40947 ft | 536 kts | 57° |
| 2026-04-25 14:02 | 10.99462 | -66.40942 | 40953 ft | 536 kts | 57° |
| 2026-04-25 14:03 | 11.03645 | -66.34662 | 40952 ft | 537 kts | 56° |
| 2026-04-25 14:03 | 11.07920 | -66.28381 | 40948 ft | 537 kts | 56° |
| 2026-04-25 14:04 | 11.12167 | -66.22133 | 40939 ft | 538 kts | 57° |
| 2026-04-25 14:04 | 11.16398 | -66.15904 | 40941 ft | 538 kts | 57° |
| 2026-04-25 14:05 | 11.20643 | -66.09651 | 40945 ft | 538 kts | 57° |
| 2026-04-25 14:05 | 11.24913 | -66.03358 | 40942 ft | 538 kts | 56° |
| 2026-04-25 14:06 | 11.29160 | -65.97095 | 40941 ft | 538 kts | 57° |
| 2026-04-25 14:06 | 11.33399 | -65.90839 | 40937 ft | 538 kts | 56° |
| 2026-04-25 14:07 | 11.37655 | -65.84555 | 40935 ft | 537 kts | 56° |
| 2026-04-25 14:07 | 11.41872 | -65.78327 | 40937 ft | 537 kts | 57° |
| 2026-04-25 14:08 | 11.46123 | -65.72040 | 40938 ft | 537 kts | 57° |
| 2026-04-25 14:08 | 11.50335 | -65.65803 | 40931 ft | 537 kts | 57° |
| 2026-04-25 14:09 | 11.54568 | -65.59532 | 40937 ft | 537 kts | 57° |
| 2026-04-25 14:09 | 11.58816 | -65.53235 | 40942 ft | 538 kts | 56° |
| 2026-04-25 14:10 | 11.63064 | -65.46935 | 40942 ft | 537 kts | 56° |
| 2026-04-25 14:10 | 11.67277 | -65.40685 | 40936 ft | 537 kts | 56° |
| 2026-04-25 14:11 | 11.71570 | -65.34470 | 40931 ft | 537 kts | 56° |
| 2026-04-25 14:11 | 11.75870 | -65.28247 | 40928 ft | 537 kts | 56° |
| 2026-04-25 14:12 | 11.80189 | -65.21997 | 40932 ft | 537 kts | 56° |
| 2026-04-25 14:12 | 11.84474 | -65.15791 | 40930 ft | 537 kts | 56° |
| 2026-04-25 14:13 | 11.88777 | -65.09553 | 40922 ft | 537 kts | 56° |
| 2026-04-25 14:13 | 11.93088 | -65.03301 | 40919 ft | 538 kts | 56° |
| 2026-04-25 14:14 | 11.97399 | -64.97044 | 40923 ft | 538 kts | 56° |
| 2026-04-25 14:14 | 12.01694 | -64.90807 | 40933 ft | 539 kts | 56° |
| 2026-04-25 14:15 | 12.05997 | -64.84555 | 40932 ft | 539 kts | 56° |
| 2026-04-25 14:15 | 12.10295 | -64.78304 | 40926 ft | 539 kts | 56° |
| 2026-04-25 14:16 | 12.14619 | -64.72014 | 40930 ft | 538 kts | 56° |
| 2026-04-25 14:16 | 12.18895 | -64.65787 | 40934 ft | 538 kts | 56° |
| 2026-04-25 14:17 | 12.23205 | -64.59510 | 40933 ft | 539 kts | 56° |
| 2026-04-25 14:17 | 12.27505 | -64.53240 | 40935 ft | 540 kts | 56° |
| 2026-04-25 14:18 | 12.31824 | -64.46941 | 40930 ft | 540 kts | 56° |
| 2026-04-25 14:18 | 12.36111 | -64.40678 | 40926 ft | 540 kts | 56° |
| 2026-04-25 14:19 | 12.40398 | -64.34327 | 40936 ft | 541 kts | 56° |
| 2026-04-25 14:19 | 12.44659 | -64.28011 | 40934 ft | 540 kts | 56° |
| 2026-04-25 14:20 | 12.48947 | -64.21651 | 40935 ft | 540 kts | 56° |
| 2026-04-25 14:20 | 12.53196 | -64.15346 | 40946 ft | 541 kts | 56° |
| 2026-04-25 14:21 | 12.57445 | -64.09034 | 40955 ft | 541 kts | 56° |
| 2026-04-25 14:21 | 12.61732 | -64.02663 | 40960 ft | 541 kts | 56° |
| 2026-04-25 14:22 | 12.65992 | -63.96328 | 40965 ft | 542 kts | 56° |
| 2026-04-25 14:22 | 12.70245 | -63.89999 | 40954 ft | 542 kts | 56° |
| 2026-04-25 14:23 | 12.74518 | -63.83635 | 40937 ft | 542 kts | 56° |
| 2026-04-25 14:23 | 12.78795 | -63.77261 | 40944 ft | 542 kts | 56° |
| 2026-04-25 14:24 | 12.83048 | -63.70904 | 40950 ft | 542 kts | 56° |
| 2026-04-25 14:24 | 12.87357 | -63.64603 | 40941 ft | 542 kts | 52° |
| 2026-04-25 14:25 | 12.92162 | -63.58648 | 40944 ft | 542 kts | 51° |
| 2026-04-25 14:25 | 12.96939 | -63.52704 | 40955 ft | 542 kts | 50° |
| 2026-04-25 14:26 | 13.01724 | -63.46743 | 40959 ft | 543 kts | 51° |
| 2026-04-25 14:26 | 13.06532 | -63.40751 | 40949 ft | 543 kts | 50° |
| 2026-04-25 14:27 | 13.11313 | -63.34785 | 40950 ft | 543 kts | 51° |
| 2026-04-25 14:27 | 13.16121 | -63.28783 | 40950 ft | 543 kts | 50° |
| 2026-04-25 14:28 | 13.20897 | -63.22818 | 40944 ft | 543 kts | 50° |
| 2026-04-25 14:28 | 13.25686 | -63.16831 | 40944 ft | 543 kts | 51° |
| 2026-04-25 14:29 | 13.30456 | -63.10865 | 40944 ft | 543 kts | 51° |
| 2026-04-25 14:29 | 13.35244 | -63.04871 | 40947 ft | 543 kts | 50° |
| 2026-04-25 14:30 | 13.40039 | -62.98865 | 40949 ft | 543 kts | 50° |
| 2026-04-25 14:30 | 13.47224 | -62.89859 | 40951 ft | 544 kts | 50° |
| 2026-04-25 14:31 | 13.52007 | -62.83856 | 40952 ft | 544 kts | 50° |
| 2026-04-25 14:31 | 13.56785 | -62.77857 | 40957 ft | 544 kts | 51° |
| 2026-04-25 14:32 | 13.61561 | -62.71855 | 40953 ft | 544 kts | 50° |
| 2026-04-25 14:32 | 13.66371 | -62.65807 | 40949 ft | 545 kts | 50° |
| 2026-04-25 14:33 | 13.71126 | -62.59824 | 40950 ft | 545 kts | 51° |
| 2026-04-25 14:33 | 13.75935 | -62.53769 | 40954 ft | 545 kts | 51° |
| 2026-04-25 14:34 | 13.80720 | -62.47738 | 40954 ft | 545 kts | 50° |
| 2026-04-25 14:34 | 13.85514 | -62.41694 | 40948 ft | 545 kts | 51° |
| 2026-04-25 14:35 | 13.90309 | -62.35642 | 40950 ft | 545 kts | 50° |
| 2026-04-25 14:35 | 13.95074 | -62.29624 | 40954 ft | 545 kts | 51° |
| 2026-04-25 14:36 | 13.99854 | -62.23584 | 40955 ft | 545 kts | 51° |
| 2026-04-25 14:36 | 14.04653 | -62.17515 | 40944 ft | 545 kts | 51° |
| 2026-04-25 14:37 | 14.09437 | -62.11459 | 40947 ft | 546 kts | 51° |
| 2026-04-25 14:37 | 14.14223 | -62.05399 | 40944 ft | 545 kts | 51° |
| 2026-04-25 14:38 | 14.19027 | -61.99309 | 40948 ft | 546 kts | 51° |
| 2026-04-25 14:38 | 14.23813 | -61.93239 | 40947 ft | 546 kts | 51° |
| 2026-04-25 14:39 | 14.28578 | -61.87190 | 40953 ft | 546 kts | 51° |
| 2026-04-25 14:39 | 14.33378 | -61.81092 | 40963 ft | 546 kts | 51° |
| 2026-04-25 14:40 | 14.38139 | -61.75040 | 40975 ft | 546 kts | 51° |
| 2026-04-25 14:40 | 14.42930 | -61.68944 | 40975 ft | 546 kts | 50° |
| 2026-04-25 14:41 | 14.47715 | -61.62853 | 40973 ft | 547 kts | 50° |
| 2026-04-25 14:41 | 14.52523 | -61.56726 | 40978 ft | 547 kts | 50° |
| 2026-04-25 14:42 | 14.55680 | -61.52701 | 40976 ft | 547 kts | 50° |
| 2026-04-25 14:42 | 14.62077 | -61.44540 | 40981 ft | 548 kts | 50° |
| 2026-04-25 14:43 | 14.66863 | -61.38427 | 40984 ft | 548 kts | 50° |
| 2026-04-25 14:43 | 14.71643 | -61.32318 | 40974 ft | 548 kts | 51° |
| 2026-04-25 14:44 | 14.76422 | -61.26205 | 40970 ft | 547 kts | 51° |
| 2026-04-25 14:44 | 14.81205 | -61.20083 | 40981 ft | 547 kts | 51° |
| 2026-04-25 14:45 | 14.85965 | -61.13985 | 40991 ft | 548 kts | 51° |
| 2026-04-25 14:45 | 14.90757 | -61.07841 | 40982 ft | 548 kts | 51° |
| 2026-04-25 14:46 | 14.95536 | -61.01709 | 40987 ft | 548 kts | 51° |
| 2026-04-25 14:46 | 15.00316 | -60.95568 | 40989 ft | 548 kts | 50° |
| 2026-04-25 14:47 | 15.03493 | -60.91487 | 40990 ft | 548 kts | 51° |
| 2026-04-25 14:47 | 15.09872 | -60.83283 | 40995 ft | 548 kts | 51° |
| 2026-04-25 14:48 | 15.14616 | -60.77174 | 40989 ft | 549 kts | 51° |
| 2026-04-25 14:48 | 15.19411 | -60.70997 | 40977 ft | 548 kts | 50° |
| 2026-04-25 14:49 | 15.24194 | -60.64829 | 40976 ft | 549 kts | 50° |
| 2026-04-25 14:49 | 15.28974 | -60.58661 | 40981 ft | 550 kts | 50° |
| 2026-04-25 14:50 | 15.33750 | -60.52493 | 40984 ft | 550 kts | 50° |
| 2026-04-25 14:50 | 15.38538 | -60.46303 | 40983 ft | 550 kts | 50° |
| 2026-04-25 14:51 | 15.43306 | -60.40136 | 40987 ft | 549 kts | 50° |
| 2026-04-25 14:51 | 15.48084 | -60.33950 | 40990 ft | 550 kts | 51° |
| 2026-04-25 14:52 | 15.52846 | -60.27779 | 40980 ft | 549 kts | 51° |
| 2026-04-25 14:52 | 15.56794 | -60.22660 | 40981 ft | 548 kts | 51° |
| 2026-04-25 14:53 | 15.62370 | -60.15423 | 40987 ft | 549 kts | 51° |
| 2026-04-25 14:53 | 15.67122 | -60.09251 | 40985 ft | 549 kts | 51° |
| 2026-04-25 14:54 | 15.71892 | -60.03050 | 40986 ft | 550 kts | 51° |
| 2026-04-25 14:54 | 15.76647 | -59.96864 | 40992 ft | 550 kts | 51° |
| 2026-04-25 14:55 | 15.81412 | -59.90657 | 40989 ft | 551 kts | 51° |
| 2026-04-25 14:55 | 15.86171 | -59.84455 | 40985 ft | 551 kts | 51° |
| 2026-04-25 14:56 | 15.90947 | -59.78225 | 40988 ft | 551 kts | 51° |
| 2026-04-25 14:56 | 15.95703 | -59.72018 | 40992 ft | 551 kts | 51° |
| 2026-04-25 14:57 | 16.00485 | -59.65769 | 40992 ft | 551 kts | 51° |
| 2026-04-25 14:57 | 16.05241 | -59.59549 | 40991 ft | 551 kts | 51° |
| 2026-04-25 14:58 | 16.10000 | -59.53321 | 40989 ft | 551 kts | 51° |
| 2026-04-25 14:58 | 16.14784 | -59.47052 | 40991 ft | 552 kts | 51° |
| 2026-04-25 14:59 | 16.19565 | -59.40784 | 40988 ft | 554 kts | 51° |
| 2026-04-25 14:59 | 16.24323 | -59.34543 | 40988 ft | 554 kts | 51° |
| 2026-04-25 15:00 | 16.29120 | -59.28242 | 40984 ft | 555 kts | 51° |
| 2026-04-25 15:00 | 16.33901 | -59.21958 | 40982 ft | 555 kts | 51° |
| 2026-04-25 15:01 | 16.38668 | -59.15686 | 40983 ft | 555 kts | 51° |
| 2026-04-25 15:01 | 16.43463 | -59.09374 | 40986 ft | 555 kts | 51° |
| 2026-04-25 15:02 | 16.48233 | -59.03086 | 40986 ft | 555 kts | 51° |
| 2026-04-25 15:02 | 16.53024 | -58.96767 | 40996 ft | 556 kts | 51° |
| 2026-04-25 15:03 | 16.57820 | -58.90436 | 41012 ft | 557 kts | 51° |
| 2026-04-25 15:03 | 16.62614 | -58.84100 | 41010 ft | 557 kts | 51° |
| 2026-04-25 15:04 | 16.67440 | -58.77718 | 41004 ft | 558 kts | 51° |
| 2026-04-25 15:04 | 16.72210 | -58.71404 | 41007 ft | 558 kts | 51° |
| 2026-04-25 15:05 | 16.77006 | -58.65049 | 41016 ft | 558 kts | 51° |
| 2026-04-25 15:06 | 16.84216 | -58.55484 | 41016 ft | 559 kts | 51° |
| 2026-04-25 15:06 | 16.89023 | -58.49100 | 41007 ft | 559 kts | 51° |
| 2026-04-25 15:07 | 16.93787 | -58.42768 | 40994 ft | 558 kts | 51° |
| 2026-04-25 15:07 | 16.98596 | -58.36371 | 40993 ft | 557 kts | 51° |
| 2026-04-25 15:08 | 17.03375 | -58.30004 | 40992 ft | 557 kts | 51° |
| 2026-04-25 15:08 | 17.08123 | -58.23676 | 40991 ft | 557 kts | 51° |
| 2026-04-25 15:09 | 17.12931 | -58.17262 | 40991 ft | 558 kts | 51° |
| 2026-04-25 15:09 | 17.20100 | -58.07686 | 40984 ft | 559 kts | 51° |
| 2026-04-25 15:10 | 17.24888 | -58.01282 | 40986 ft | 558 kts | 51° |
| 2026-04-25 15:11 | 17.32047 | -57.91698 | 40998 ft | 560 kts | 51° |
| 2026-04-25 15:11 | 17.36830 | -57.85286 | 40993 ft | 559 kts | 51° |
| 2026-04-25 15:12 | 17.44000 | -57.75663 | 41003 ft | 560 kts | 51° |
| 2026-04-25 15:12 | 17.47185 | -57.71385 | 41006 ft | 560 kts | 51° |
| 2026-04-25 15:13 | 17.51171 | -57.66027 | 40802 ft | 560 kts | 51° |
| 2026-04-25 15:13 | 17.55929 | -57.59622 | 41021 ft | 560 kts | 51° |
| 2026-04-25 15:14 | 17.60710 | -57.53184 | 41005 ft | 561 kts | 51° |
| 2026-04-25 15:14 | 17.65502 | -57.46724 | 41014 ft | 561 kts | 51° |
| 2026-04-25 15:15 | 17.70285 | -57.40266 | 41009 ft | 560 kts | 51° |
| 2026-04-25 15:15 | 17.75046 | -57.33834 | 41007 ft | 561 kts | 51° |
| 2026-04-25 15:16 | 17.79832 | -57.27362 | 41005 ft | 561 kts | 51° |
| 2026-04-25 15:16 | 17.87007 | -57.17645 | 41006 ft | 562 kts | 51° |
| 2026-04-25 15:17 | 17.94170 | -57.07933 | 41009 ft | 560 kts | 51° |
| 2026-04-25 15:18 | 17.98920 | -57.01478 | 41008 ft | 561 kts | 52° |
| 2026-04-25 15:18 | 18.02616 | -56.94276 | 40955 ft | 563 kts | 65° |
| 2026-04-25 15:18 | 18.04287 | -56.90599 | 41034 ft | 563 kts | 64° |
| 2026-04-25 15:19 | 18.06540 | -56.85641 | 41029 ft | 563 kts | 64° |
| 2026-04-25 15:19 | 18.11025 | -56.75764 | 41010 ft | 563 kts | 64° |
| 2026-04-25 15:20 | 18.14371 | -56.68382 | 41014 ft | 562 kts | 64° |
| 2026-04-25 15:20 | 18.17743 | -56.60938 | 41023 ft | 563 kts | 64° |
| 2026-04-25 15:21 | 18.21104 | -56.53503 | 41019 ft | 563 kts | 64° |
| 2026-04-25 15:21 | 18.24445 | -56.46108 | 41016 ft | 564 kts | 64° |
| 2026-04-25 15:22 | 18.27805 | -56.38661 | 41025 ft | 562 kts | 64° |
| 2026-04-25 15:22 | 18.31152 | -56.31230 | 41009 ft | 562 kts | 65° |
| 2026-04-25 15:23 | 18.34487 | -56.23819 | 41021 ft | 562 kts | 65° |
| 2026-04-25 15:23 | 18.37832 | -56.16378 | 41025 ft | 563 kts | 65° |
| 2026-04-25 15:24 | 18.41167 | -56.08947 | 41023 ft | 563 kts | 65° |
| 2026-04-25 15:24 | 18.43392 | -56.03986 | 41025 ft | 563 kts | 65° |
| 2026-04-25 15:25 | 18.47839 | -55.94057 | 41025 ft | 563 kts | 65° |
| 2026-04-25 15:25 | 18.51155 | -55.86641 | 41034 ft | 564 kts | 65° |
| 2026-04-25 15:26 | 18.54493 | -55.79168 | 41033 ft | 563 kts | 64° |
| 2026-04-25 15:26 | 18.57819 | -55.71713 | 41029 ft | 564 kts | 65° |
| 2026-04-25 15:27 | 18.61148 | -55.64238 | 41034 ft | 564 kts | 64° |
| 2026-04-25 15:28 | 18.66133 | -55.53032 | 41033 ft | 564 kts | 64° |
| 2026-04-25 15:28 | 18.69455 | -55.45552 | 41036 ft | 564 kts | 64° |
| 2026-04-25 15:29 | 18.72749 | -55.38124 | 41035 ft | 563 kts | 65° |
| 2026-04-25 15:29 | 18.76074 | -55.30616 | 41024 ft | 564 kts | 65° |
| 2026-04-25 15:30 | 18.79380 | -55.23141 | 41032 ft | 565 kts | 65° |
| 2026-04-25 15:30 | 18.82695 | -55.15640 | 41032 ft | 564 kts | 65° |
| 2026-04-25 15:31 | 18.85984 | -55.08186 | 41026 ft | 564 kts | 65° |
| 2026-04-25 15:31 | 18.89298 | -55.00665 | 41032 ft | 564 kts | 65° |
| 2026-04-25 15:32 | 18.92600 | -54.93160 | 41034 ft | 564 kts | 65° |
| 2026-04-25 15:32 | 18.95877 | -54.85703 | 41031 ft | 564 kts | 65° |
| 2026-04-25 15:33 | 19.00818 | -54.74443 | 41027 ft | 564 kts | 65° |
| 2026-04-25 15:33 | 19.04104 | -54.66941 | 41033 ft | 563 kts | 64° |
| 2026-04-25 15:34 | 19.07398 | -54.59413 | 41038 ft | 564 kts | 65° |
| 2026-04-25 15:34 | 19.09591 | -54.54394 | 41037 ft | 564 kts | 65° |
| 2026-04-25 15:35 | 19.15590 | -54.40644 | 41032 ft | 565 kts | 65° |
| 2026-04-25 15:36 | 19.20515 | -54.29329 | 41027 ft | 565 kts | 65° |
| 2026-04-25 15:36 | 19.23801 | -54.21769 | 41025 ft | 566 kts | 65° |
| 2026-04-25 15:37 | 19.27067 | -54.14242 | 41020 ft | 566 kts | 65° |
| 2026-04-25 15:37 | 19.30343 | -54.06685 | 41029 ft | 566 kts | 65° |
| 2026-04-25 15:38 | 19.33615 | -53.99125 | 41035 ft | 567 kts | 65° |
| 2026-04-25 15:38 | 19.36882 | -53.91565 | 41034 ft | 566 kts | 65° |
| 2026-04-25 15:39 | 19.40160 | -53.83971 | 41041 ft | 567 kts | 65° |
| 2026-04-25 15:39 | 19.43430 | -53.76387 | 41054 ft | 567 kts | 65° |
| 2026-04-25 15:40 | 19.45601 | -53.71345 | 41049 ft | 566 kts | 65° |
| 2026-04-25 15:40 | 19.49959 | -53.61209 | 41054 ft | 567 kts | 65° |
| 2026-04-25 15:41 | 19.53200 | -53.53661 | 41055 ft | 567 kts | 65° |
| 2026-04-25 15:41 | 19.56468 | -53.46038 | 41054 ft | 567 kts | 65° |
| 2026-04-25 15:42 | 19.59721 | -53.38438 | 41052 ft | 567 kts | 65° |
| 2026-04-25 15:42 | 19.62964 | -53.30852 | 41043 ft | 567 kts | 65° |
| 2026-04-25 15:43 | 19.66208 | -53.23254 | 41048 ft | 568 kts | 65° |
| 2026-04-25 15:43 | 19.69466 | -53.15611 | 41049 ft | 568 kts | 65° |
| 2026-04-25 15:44 | 19.72699 | -53.08018 | 41048 ft | 569 kts | 65° |
| 2026-04-25 15:44 | 19.75946 | -53.00383 | 41049 ft | 569 kts | 65° |
| 2026-04-25 15:45 | 19.79187 | -52.92746 | 41057 ft | 569 kts | 65° |
| 2026-04-25 15:45 | 19.81354 | -52.87638 | 41054 ft | 569 kts | 65° |
| 2026-04-25 15:46 | 19.85678 | -52.77426 | 41048 ft | 569 kts | 65° |
| 2026-04-25 15:46 | 19.88899 | -52.69806 | 41058 ft | 570 kts | 65° |
| 2026-04-25 15:47 | 19.92151 | -52.62103 | 41058 ft | 569 kts | 65° |
| 2026-04-25 15:47 | 19.95372 | -52.54461 | 41053 ft | 569 kts | 65° |
| 2026-04-25 15:48 | 19.98607 | -52.46777 | 41061 ft | 569 kts | 65° |
| 2026-04-25 15:48 | 20.01825 | -52.39120 | 41057 ft | 568 kts | 65° |
| 2026-04-25 15:49 | 20.05023 | -52.31502 | 41042 ft | 568 kts | 65° |
| 2026-04-25 15:49 | 20.08231 | -52.23850 | 41046 ft | 569 kts | 65° |
| 2026-04-25 15:50 | 20.11451 | -52.16157 | 41041 ft | 570 kts | 65° |
| 2026-04-25 15:50 | 20.14673 | -52.08447 | 41044 ft | 570 kts | 65° |
| 2026-04-25 15:51 | 20.16796 | -52.03359 | 41044 ft | 570 kts | 65° |
| 2026-04-25 15:51 | 20.21083 | -51.93077 | 41047 ft | 570 kts | 65° |
| 2026-04-25 15:52 | 20.24274 | -51.85408 | 41050 ft | 570 kts | 65° |
| 2026-04-25 15:52 | 20.27479 | -51.77696 | 41050 ft | 570 kts | 65° |
| 2026-04-25 15:53 | 20.30687 | -51.69961 | 41053 ft | 571 kts | 65° |
| 2026-04-25 15:53 | 20.33877 | -51.62265 | 41051 ft | 572 kts | 65° |
| 2026-04-25 15:54 | 20.37089 | -51.54498 | 41051 ft | 571 kts | 65° |
| 2026-04-25 15:54 | 20.40269 | -51.46800 | 41058 ft | 571 kts | 65° |
| 2026-04-25 15:55 | 20.43458 | -51.39068 | 41059 ft | 571 kts | 65° |
| 2026-04-25 15:55 | 20.46630 | -51.31367 | 41037 ft | 570 kts | 65° |
| 2026-04-25 15:56 | 20.49806 | -51.23644 | 41046 ft | 570 kts | 65° |
| 2026-04-25 15:56 | 20.52990 | -51.15888 | 41044 ft | 571 kts | 65° |
| 2026-04-25 15:57 | 20.56154 | -51.08173 | 41046 ft | 572 kts | 65° |
| 2026-04-25 15:57 | 20.59330 | -51.00414 | 41048 ft | 572 kts | 65° |
| 2026-04-25 15:58 | 20.62515 | -50.92621 | 41053 ft | 571 kts | 65° |
| 2026-04-25 15:58 | 20.65666 | -50.84904 | 41054 ft | 571 kts | 65° |
| 2026-04-25 15:59 | 20.68833 | -50.77134 | 41057 ft | 571 kts | 65° |
| 2026-04-25 15:59 | 20.71986 | -50.69384 | 41054 ft | 571 kts | 65° |
| 2026-04-25 16:00 | 20.74089 | -50.64209 | 41056 ft | 571 kts | 65° |
| 2026-04-25 16:00 | 20.78293 | -50.53847 | 41065 ft | 572 kts | 65° |
| 2026-04-25 16:01 | 20.81461 | -50.46027 | 41070 ft | 573 kts | 65° |
| 2026-04-25 16:01 | 20.84611 | -50.38243 | 41070 ft | 574 kts | 65° |
| 2026-04-25 16:02 | 20.87772 | -50.30411 | 41055 ft | 574 kts | 65° |
| 2026-04-25 16:02 | 20.90911 | -50.22629 | 41063 ft | 575 kts | 65° |
| 2026-04-25 16:03 | 20.94064 | -50.14794 | 41068 ft | 574 kts | 65° |
| 2026-04-25 16:03 | 20.97209 | -50.06971 | 41072 ft | 575 kts | 65° |
| 2026-04-25 16:04 | 21.00213 | -49.99043 | 41066 ft | 576 kts | 72° |
| 2026-04-25 16:04 | 21.02160 | -49.90767 | 41070 ft | 577 kts | 76° |
| 2026-04-25 16:05 | 21.04088 | -49.82442 | 41071 ft | 577 kts | 75° |
| 2026-04-25 16:06 | 21.06969 | -49.69993 | 41077 ft | 576 kts | 76° |
| 2026-04-25 16:06 | 21.08894 | -49.61657 | 41077 ft | 575 kts | 75° |
| 2026-04-25 16:07 | 21.10804 | -49.53358 | 41070 ft | 576 kts | 75° |
| 2026-04-25 16:07 | 21.12703 | -49.45097 | 41070 ft | 576 kts | 75° |
| 2026-04-25 16:08 | 21.14607 | -49.36791 | 41076 ft | 575 kts | 75° |
| 2026-04-25 16:08 | 21.16503 | -49.28497 | 41069 ft | 575 kts | 76° |
| 2026-04-25 16:09 | 21.18404 | -49.20165 | 41066 ft | 575 kts | 76° |
| 2026-04-25 16:09 | 21.20285 | -49.11901 | 41067 ft | 575 kts | 76° |
| 2026-04-25 16:10 | 21.22173 | -49.03590 | 41064 ft | 575 kts | 76° |
| 2026-04-25 16:10 | 21.24059 | -48.95260 | 41069 ft | 576 kts | 75° |
| 2026-04-25 16:11 | 21.25933 | -48.86967 | 41071 ft | 575 kts | 76° |
| 2026-04-25 16:11 | 21.27806 | -48.78651 | 41074 ft | 575 kts | 75° |
| 2026-04-25 16:12 | 21.29675 | -48.70343 | 41073 ft | 576 kts | 76° |
| 2026-04-25 16:12 | 21.31536 | -48.62044 | 41070 ft | 575 kts | 75° |
| 2026-04-25 16:13 | 21.33405 | -48.53694 | 41076 ft | 575 kts | 76° |
| 2026-04-25 16:13 | 21.35258 | -48.45392 | 41073 ft | 575 kts | 75° |
| 2026-04-25 16:14 | 21.37107 | -48.37086 | 41071 ft | 575 kts | 75° |
| 2026-04-25 16:14 | 21.38949 | -48.28793 | 41071 ft | 574 kts | 76° |
| 2026-04-25 16:15 | 21.40793 | -48.20472 | 41070 ft | 575 kts | 76° |
| 2026-04-25 16:15 | 21.42629 | -48.12163 | 41062 ft | 575 kts | 76° |
| 2026-04-25 16:16 | 21.44476 | -48.03785 | 41064 ft | 575 kts | 76° |
| 2026-04-25 16:16 | 21.46308 | -47.95453 | 41066 ft | 575 kts | 76° |
| 2026-04-25 16:17 | 21.48136 | -47.87118 | 41071 ft | 576 kts | 76° |
| 2026-04-25 16:17 | 21.49961 | -47.78780 | 41075 ft | 576 kts | 75° |
| 2026-04-25 16:18 | 21.51772 | -47.70479 | 41073 ft | 576 kts | 76° |
| 2026-04-25 16:18 | 21.53597 | -47.62100 | 41075 ft | 575 kts | 75° |
| 2026-04-25 16:19 | 21.55405 | -47.53775 | 41074 ft | 575 kts | 76° |
| 2026-04-25 16:19 | 21.57215 | -47.45414 | 41078 ft | 575 kts | 76° |
| 2026-04-25 16:20 | 21.59916 | -47.32904 | 41064 ft | 574 kts | 76° |
| 2026-04-25 16:21 | 21.62601 | -47.20423 | 41065 ft | 575 kts | 76° |
| 2026-04-25 16:21 | 21.64398 | -47.12037 | 41069 ft | 575 kts | 75° |
| 2026-04-25 16:22 | 21.66188 | -47.03669 | 41072 ft | 576 kts | 75° |
| 2026-04-25 16:22 | 21.67947 | -46.95426 | 41070 ft | 576 kts | 76° |
| 2026-04-25 16:23 | 21.69732 | -46.87029 | 41068 ft | 576 kts | 75° |
| 2026-04-25 16:23 | 21.71505 | -46.78677 | 41070 ft | 576 kts | 75° |
| 2026-04-25 16:24 | 21.73271 | -46.70330 | 41068 ft | 576 kts | 76° |
| 2026-04-25 16:24 | 21.75037 | -46.61963 | 41071 ft | 576 kts | 75° |
| 2026-04-25 16:25 | 21.76805 | -46.53570 | 41077 ft | 576 kts | 75° |
| 2026-04-25 16:25 | 21.78563 | -46.45191 | 41076 ft | 576 kts | 75° |
| 2026-04-25 16:26 | 21.80325 | -46.36783 | 41077 ft | 576 kts | 75° |
| 2026-04-25 16:26 | 21.82071 | -46.28422 | 41067 ft | 576 kts | 76° |
| 2026-04-25 16:27 | 21.83819 | -46.20030 | 41063 ft | 577 kts | 76° |
| 2026-04-25 16:27 | 21.85562 | -46.11635 | 41061 ft | 576 kts | 76° |
| 2026-04-25 16:28 | 21.87307 | -46.03217 | 41069 ft | 576 kts | 76° |
| 2026-04-25 16:28 | 21.89033 | -45.94859 | 41074 ft | 576 kts | 75° |
| 2026-04-25 16:29 | 21.90767 | -45.86446 | 41069 ft | 577 kts | 76° |
| 2026-04-25 16:29 | 21.92493 | -45.78043 | 41069 ft | 576 kts | 75° |
| 2026-04-25 16:30 | 21.93930 | -45.71035 | 41070 ft | 576 kts | 76° |
| 2026-04-25 16:30 | 21.95940 | -45.61208 | 41076 ft | 576 kts | 76° |
| 2026-04-25 16:31 | 21.97647 | -45.52832 | 41078 ft | 575 kts | 75° |
| 2026-04-25 16:31 | 21.99351 | -45.44451 | 41076 ft | 576 kts | 75° |
| 2026-04-25 16:32 | 22.01050 | -45.36066 | 41080 ft | 577 kts | 75° |
| 2026-04-25 16:32 | 22.02762 | -45.27603 | 41068 ft | 576 kts | 76° |
| 2026-04-25 16:33 | 22.04450 | -45.19228 | 41069 ft | 576 kts | 76° |
| 2026-04-25 16:33 | 22.06150 | -45.10771 | 41066 ft | 577 kts | 76° |
| 2026-04-25 16:34 | 22.07839 | -45.02351 | 41068 ft | 578 kts | 76° |
| 2026-04-25 16:34 | 22.09531 | -44.93885 | 41071 ft | 578 kts | 76° |
| 2026-04-25 16:35 | 22.11218 | -44.85419 | 41073 ft | 578 kts | 76° |
| 2026-04-25 16:35 | 22.12900 | -44.76961 | 41073 ft | 578 kts | 76° |
| 2026-04-25 16:36 | 22.14567 | -44.68550 | 41070 ft | 578 kts | 76° |
| 2026-04-25 16:36 | 22.16238 | -44.60096 | 41074 ft | 578 kts | 75° |
| 2026-04-25 16:37 | 22.17903 | -44.51654 | 41077 ft | 578 kts | 75° |
| 2026-04-25 16:37 | 22.19569 | -44.43176 | 41079 ft | 577 kts | 75° |
| 2026-04-25 16:38 | 22.21221 | -44.34744 | 41076 ft | 577 kts | 76° |
| 2026-04-25 16:38 | 22.22878 | -44.26265 | 41064 ft | 577 kts | 76° |
| 2026-04-25 16:39 | 22.24519 | -44.17844 | 41068 ft | 577 kts | 76° |
| 2026-04-25 16:39 | 22.26173 | -44.09335 | 41068 ft | 578 kts | 76° |
| 2026-04-25 16:40 | 22.27805 | -44.00908 | 41066 ft | 577 kts | 75° |
| 2026-04-25 16:40 | 22.29441 | -43.92446 | 41070 ft | 577 kts | 76° |
| 2026-04-25 16:41 | 22.31070 | -43.83985 | 41075 ft | 577 kts | 76° |
| 2026-04-25 16:41 | 22.33505 | -43.71292 | 41077 ft | 577 kts | 76° |
| 2026-04-25 16:42 | 22.35131 | -43.62793 | 41074 ft | 577 kts | 76° |
| 2026-04-25 16:42 | 22.36739 | -43.54356 | 41077 ft | 578 kts | 75° |
| 2026-04-25 16:43 | 22.38355 | -43.45851 | 41082 ft | 577 kts | 75° |
| 2026-04-25 16:43 | 22.39960 | -43.37386 | 41078 ft | 578 kts | 75° |
| 2026-04-25 16:44 | 22.41563 | -43.28899 | 41068 ft | 577 kts | 76° |
| 2026-04-25 16:44 | 22.43165 | -43.20392 | 41062 ft | 578 kts | 76° |
| 2026-04-25 16:45 | 22.44758 | -43.11915 | 41067 ft | 578 kts | 76° |
| 2026-04-25 16:45 | 22.46352 | -43.03406 | 41070 ft | 579 kts | 76° |
| 2026-04-25 16:46 | 22.47937 | -42.94915 | 41074 ft | 579 kts | 76° |
| 2026-04-25 16:46 | 22.48986 | -42.89273 | 41075 ft | 578 kts | 75° |
| 2026-04-25 16:47 | 22.51091 | -42.77942 | 41077 ft | 578 kts | 76° |
| 2026-04-25 16:47 | 22.52662 | -42.69445 | 41081 ft | 578 kts | 76° |
| 2026-04-25 16:48 | 22.54226 | -42.60961 | 41083 ft | 578 kts | 75° |
| 2026-04-25 16:48 | 22.55796 | -42.52426 | 41086 ft | 577 kts | 75° |
| 2026-04-25 16:49 | 22.57350 | -42.43949 | 41090 ft | 578 kts | 76° |
| 2026-04-25 16:49 | 22.58904 | -42.35441 | 41092 ft | 578 kts | 76° |
| 2026-04-25 16:50 | 22.60454 | -42.26927 | 41082 ft | 578 kts | 76° |
| 2026-04-25 16:50 | 22.61994 | -42.18447 | 41077 ft | 578 kts | 76° |
| 2026-04-25 16:51 | 22.63535 | -42.09934 | 41085 ft | 578 kts | 76° |
| 2026-04-25 16:51 | 22.64560 | -42.04256 | 41089 ft | 579 kts | 76° |
| 2026-04-25 16:52 | 22.66613 | -41.92851 | 41087 ft | 578 kts | 76° |
| 2026-04-25 16:52 | 22.68139 | -41.84343 | 41090 ft | 579 kts | 76° |
| 2026-04-25 16:53 | 22.70424 | -41.71539 | 41094 ft | 579 kts | 76° |
| 2026-04-25 16:54 | 22.71944 | -41.62996 | 41096 ft | 579 kts | 76° |
| 2026-04-25 16:54 | 22.73456 | -41.54472 | 41094 ft | 579 kts | 76° |
| 2026-04-25 16:55 | 22.74968 | -41.45914 | 41096 ft | 580 kts | 76° |
| 2026-04-25 16:55 | 22.76485 | -41.37302 | 41099 ft | 580 kts | 76° |
| 2026-04-25 16:56 | 22.77985 | -41.28763 | 41086 ft | 580 kts | 76° |
| 2026-04-25 16:56 | 22.79484 | -41.20195 | 41084 ft | 580 kts | 76° |
| 2026-04-25 16:57 | 22.80979 | -41.11626 | 41081 ft | 581 kts | 76° |
| 2026-04-25 16:57 | 22.82471 | -41.03043 | 41084 ft | 580 kts | 76° |
| 2026-04-25 16:58 | 22.83957 | -40.94470 | 41087 ft | 581 kts | 76° |
| 2026-04-25 16:58 | 22.85436 | -40.85904 | 41090 ft | 582 kts | 76° |
| 2026-04-25 16:59 | 22.86917 | -40.77300 | 41094 ft | 582 kts | 76° |
| 2026-04-25 16:59 | 22.88397 | -40.68682 | 41098 ft | 584 kts | 76° |
| 2026-04-25 17:00 | 22.89874 | -40.60042 | 41101 ft | 582 kts | 76° |
| 2026-04-25 17:00 | 22.91343 | -40.51429 | 41104 ft | 584 kts | 76° |
| 2026-04-25 17:01 | 22.92805 | -40.42809 | 41110 ft | 584 kts | 76° |
| 2026-04-25 17:01 | 22.94265 | -40.34192 | 41110 ft | 583 kts | 76° |
| 2026-04-25 17:02 | 22.95720 | -40.25559 | 41095 ft | 583 kts | 76° |
| 2026-04-25 17:02 | 22.97183 | -40.16864 | 41100 ft | 584 kts | 76° |
| 2026-04-25 17:03 | 22.98630 | -40.08221 | 41107 ft | 584 kts | 76° |
| 2026-04-25 17:03 | 22.99448 | -39.99519 | 41119 ft | 589 kts | 96° |
| 2026-04-25 17:04 | 22.97788 | -39.90754 | 41131 ft | 593 kts | 104° |
| 2026-04-25 17:04 | 22.95776 | -39.82163 | 41109 ft | 592 kts | 104° |
| 2026-04-25 17:05 | 22.93720 | -39.73491 | 41110 ft | 592 kts | 104° |
| 2026-04-25 17:05 | 22.90648 | -39.60592 | 41112 ft | 591 kts | 104° |
| 2026-04-25 17:06 | 22.88591 | -39.51989 | 41116 ft | 591 kts | 104° |
| 2026-04-25 17:06 | 22.86531 | -39.43386 | 41119 ft | 591 kts | 104° |
| 2026-04-25 17:07 | 22.84462 | -39.34774 | 41116 ft | 591 kts | 104° |
| 2026-04-25 17:07 | 22.82396 | -39.26195 | 41096 ft | 591 kts | 104° |
| 2026-04-25 17:08 | 22.80314 | -39.17568 | 41096 ft | 591 kts | 104° |
| 2026-04-25 17:08 | 22.78240 | -39.08996 | 41101 ft | 592 kts | 104° |
| 2026-04-25 17:09 | 22.76161 | -39.00430 | 41102 ft | 591 kts | 104° |
| 2026-04-25 17:09 | 22.74068 | -38.91820 | 41105 ft | 592 kts | 104° |
| 2026-04-25 17:10 | 22.71976 | -38.83241 | 41104 ft | 592 kts | 104° |
| 2026-04-25 17:10 | 22.69873 | -38.74635 | 41109 ft | 593 kts | 104° |
| 2026-04-25 17:11 | 22.67773 | -38.66061 | 41107 ft | 593 kts | 104° |
| 2026-04-25 17:11 | 22.65649 | -38.57424 | 41107 ft | 591 kts | 104° |
| 2026-04-25 17:12 | 22.63550 | -38.48893 | 41110 ft | 591 kts | 104° |
| 2026-04-25 17:12 | 22.61430 | -38.40304 | 41114 ft | 592 kts | 104° |
| 2026-04-25 17:13 | 22.60015 | -38.34582 | 41109 ft | 592 kts | 105° |
| 2026-04-25 17:13 | 22.57183 | -38.23164 | 41098 ft | 591 kts | 104° |
| 2026-04-25 17:14 | 22.55047 | -38.14575 | 41104 ft | 590 kts | 104° |
| 2026-04-25 17:14 | 22.52918 | -38.06035 | 41101 ft | 591 kts | 104° |
| 2026-04-25 17:15 | 22.50786 | -37.97501 | 41104 ft | 591 kts | 105° |
| 2026-04-25 17:15 | 22.48638 | -37.88926 | 41102 ft | 590 kts | 104° |
| 2026-04-25 17:16 | 22.46488 | -37.80364 | 41102 ft | 591 kts | 105° |
| 2026-04-25 17:16 | 22.44342 | -37.71835 | 41103 ft | 592 kts | 105° |
| 2026-04-25 17:17 | 22.42179 | -37.63266 | 41106 ft | 592 kts | 104° |
| 2026-04-25 17:17 | 22.40009 | -37.54684 | 41107 ft | 592 kts | 105° |
| 2026-04-25 17:18 | 22.37850 | -37.46172 | 41107 ft | 592 kts | 104° |
| 2026-04-25 17:18 | 22.35669 | -37.37592 | 41111 ft | 592 kts | 104° |
| 2026-04-25 17:19 | 22.33498 | -37.29058 | 41101 ft | 593 kts | 105° |
| 2026-04-25 17:19 | 22.31305 | -37.20481 | 41099 ft | 593 kts | 105° |
| 2026-04-25 17:20 | 22.29114 | -37.11917 | 41090 ft | 593 kts | 105° |
| 2026-04-25 17:20 | 22.26920 | -37.03366 | 41096 ft | 593 kts | 105° |
| 2026-04-25 17:21 | 22.24718 | -36.94802 | 41099 ft | 594 kts | 105° |
| 2026-04-25 17:21 | 22.22516 | -36.86253 | 41100 ft | 593 kts | 105° |
| 2026-04-25 17:22 | 22.21043 | -36.80550 | 41100 ft | 594 kts | 105° |
| 2026-04-25 17:22 | 22.18088 | -36.69131 | 41101 ft | 593 kts | 105° |
| 2026-04-25 17:23 | 22.15875 | -36.60608 | 41103 ft | 593 kts | 105° |
| 2026-04-25 17:23 | 22.13645 | -36.52034 | 41101 ft | 593 kts | 105° |
| 2026-04-25 17:24 | 22.11425 | -36.43529 | 41109 ft | 593 kts | 105° |
| 2026-04-25 17:24 | 22.09191 | -36.34982 | 41108 ft | 593 kts | 105° |
| 2026-04-25 17:25 | 22.06957 | -36.26451 | 41090 ft | 591 kts | 106° |
| 2026-04-25 17:25 | 22.04723 | -36.17941 | 41092 ft | 593 kts | 105° |
| 2026-04-25 17:26 | 22.02491 | -36.09460 | 41087 ft | 593 kts | 105° |
| 2026-04-25 17:26 | 22.00235 | -36.00928 | 41085 ft | 593 kts | 107° |
| 2026-04-25 17:27 | 21.97413 | -35.92626 | 41089 ft | 592 kts | 111° |
| 2026-04-25 17:27 | 21.95449 | -35.87059 | 41093 ft | 592 kts | 111° |
| 2026-04-25 17:28 | 21.91565 | -35.76031 | 41094 ft | 592 kts | 111° |
| 2026-04-25 17:28 | 21.88651 | -35.67770 | 41085 ft | 593 kts | 111° |
| 2026-04-25 17:29 | 21.85734 | -35.59520 | 41087 ft | 592 kts | 111° |
| 2026-04-25 17:29 | 21.82810 | -35.51265 | 41090 ft | 592 kts | 111° |
| 2026-04-25 17:30 | 21.79879 | -35.43003 | 41096 ft | 591 kts | 110° |
| 2026-04-25 17:30 | 21.76951 | -35.34767 | 41093 ft | 592 kts | 111° |
| 2026-04-25 17:31 | 21.74011 | -35.26512 | 41079 ft | 592 kts | 111° |
| 2026-04-25 17:31 | 21.71079 | -35.18289 | 41078 ft | 592 kts | 111° |
| 2026-04-25 17:32 | 21.68118 | -35.10003 | 41083 ft | 591 kts | 111° |
| 2026-04-25 17:32 | 21.65164 | -35.01756 | 41081 ft | 592 kts | 111° |
| 2026-04-25 17:33 | 21.62225 | -34.93558 | 41080 ft | 592 kts | 111° |
| 2026-04-25 17:33 | 21.59267 | -34.85329 | 41085 ft | 592 kts | 111° |
| 2026-04-25 17:34 | 21.56308 | -34.77106 | 41082 ft | 591 kts | 111° |
| 2026-04-25 17:34 | 21.53354 | -34.68913 | 41084 ft | 592 kts | 111° |
| 2026-04-25 17:35 | 21.50368 | -34.60643 | 41083 ft | 592 kts | 111° |
| 2026-04-25 17:35 | 21.47404 | -34.52454 | 41086 ft | 591 kts | 111° |
| 2026-04-25 17:36 | 21.44426 | -34.44233 | 41088 ft | 590 kts | 111° |
| 2026-04-25 17:36 | 21.41464 | -34.36081 | 41086 ft | 592 kts | 111° |
| 2026-04-25 17:37 | 21.38468 | -34.27842 | 41077 ft | 591 kts | 112° |
| 2026-04-25 17:37 | 21.35500 | -34.19700 | 41071 ft | 590 kts | 112° |
| 2026-04-25 17:38 | 21.33495 | -34.14206 | 41077 ft | 591 kts | 111° |
| 2026-04-25 17:38 | 21.29511 | -34.03306 | 41077 ft | 590 kts | 111° |
| 2026-04-25 17:39 | 21.26523 | -33.95147 | 41077 ft | 590 kts | 112° |
| 2026-04-25 17:39 | 21.23530 | -33.86991 | 41076 ft | 590 kts | 111° |
| 2026-04-25 17:40 | 21.20545 | -33.78866 | 41077 ft | 589 kts | 111° |
| 2026-04-25 17:40 | 21.17532 | -33.70683 | 41079 ft | 590 kts | 111° |
| 2026-04-25 17:41 | 21.14518 | -33.62511 | 41074 ft | 590 kts | 112° |
| 2026-04-25 17:41 | 21.11512 | -33.54375 | 41073 ft | 590 kts | 112° |
| 2026-04-25 17:42 | 21.08511 | -33.46264 | 41066 ft | 590 kts | 112° |
| 2026-04-25 17:42 | 21.05490 | -33.38115 | 41072 ft | 590 kts | 112° |
| 2026-04-25 17:43 | 21.02462 | -33.29957 | 41048 ft | 590 kts | 112° |
| 2026-04-25 17:43 | 20.99429 | -33.21806 | 41050 ft | 589 kts | 112° |
| 2026-04-25 17:44 | 20.96418 | -33.13721 | 41055 ft | 590 kts | 112° |
| 2026-04-25 17:44 | 20.93382 | -33.05584 | 41048 ft | 589 kts | 112° |
| 2026-04-25 17:45 | 20.91366 | -33.00193 | 41050 ft | 590 kts | 112° |
| 2026-04-25 17:45 | 20.87317 | -32.89374 | 41051 ft | 589 kts | 112° |
| 2026-04-25 17:46 | 20.84269 | -32.81249 | 41045 ft | 589 kts | 112° |
| 2026-04-25 17:46 | 20.81222 | -32.73135 | 41053 ft | 588 kts | 113° |
| 2026-04-25 17:47 | 20.78187 | -32.65071 | 41049 ft | 587 kts | 112° |
| 2026-04-25 17:47 | 20.75138 | -32.56979 | 41054 ft | 586 kts | 112° |
| 2026-04-25 17:48 | 20.70572 | -32.44893 | 41050 ft | 587 kts | 112° |
| 2026-04-25 17:49 | 20.67506 | -32.36790 | 41058 ft | 587 kts | 112° |
| 2026-04-25 17:49 | 20.64451 | -32.28733 | 41040 ft | 586 kts | 113° |
| 2026-04-25 17:50 | 20.61392 | -32.20675 | 41034 ft | 586 kts | 113° |
| 2026-04-25 17:50 | 20.58344 | -32.12659 | 41040 ft | 585 kts | 113° |
| 2026-04-25 17:51 | 20.55281 | -32.04620 | 41039 ft | 586 kts | 113° |
| 2026-04-25 17:51 | 20.52221 | -31.96600 | 41038 ft | 586 kts | 113° |
| 2026-04-25 17:52 | 20.49153 | -31.88570 | 41040 ft | 585 kts | 113° |
| 2026-04-25 17:52 | 20.46086 | -31.80559 | 41041 ft | 585 kts | 113° |
| 2026-04-25 17:53 | 20.43036 | -31.72599 | 41042 ft | 584 kts | 113° |
| 2026-04-25 17:53 | 20.39634 | -31.64765 | 41035 ft | 584 kts | 116° |
| 2026-04-25 17:54 | 20.36191 | -31.56930 | 41045 ft | 583 kts | 116° |
| 2026-04-25 17:54 | 20.32761 | -31.49130 | 41048 ft | 584 kts | 116° |
| 2026-04-25 17:55 | 20.29306 | -31.41281 | 41043 ft | 584 kts | 116° |
| 2026-04-25 17:55 | 20.25885 | -31.33522 | 41033 ft | 583 kts | 116° |
| 2026-04-25 17:56 | 20.22428 | -31.25692 | 41026 ft | 583 kts | 116° |
| 2026-04-25 17:56 | 20.18998 | -31.17933 | 41030 ft | 583 kts | 116° |
| 2026-04-25 17:57 | 20.15530 | -31.10105 | 41030 ft | 583 kts | 116° |
| 2026-04-25 17:57 | 20.12079 | -31.02321 | 41033 ft | 583 kts | 116° |
| 2026-04-25 17:58 | 20.08621 | -30.94534 | 41030 ft | 584 kts | 116° |
| 2026-04-25 17:58 | 20.05164 | -30.86758 | 41030 ft | 583 kts | 116° |
| 2026-04-25 17:59 | 20.01700 | -30.78983 | 41032 ft | 583 kts | 116° |
| 2026-04-25 17:59 | 19.98253 | -30.71253 | 41038 ft | 582 kts | 116° |
| 2026-04-25 18:00 | 19.95376 | -30.64810 | 41035 ft | 581 kts | 116° |
| 2026-04-25 18:00 | 19.91335 | -30.55773 | 41034 ft | 579 kts | 116° |
| 2026-04-25 18:01 | 19.87889 | -30.48080 | 41025 ft | 580 kts | 116° |
| 2026-04-25 18:01 | 19.84422 | -30.40348 | 41036 ft | 580 kts | 116° |
| 2026-04-25 18:02 | 19.80960 | -30.32637 | 41010 ft | 579 kts | 117° |
| 2026-04-25 18:02 | 19.77506 | -30.24960 | 41023 ft | 579 kts | 117° |
| 2026-04-25 18:03 | 19.74026 | -30.17230 | 41036 ft | 580 kts | 117° |
| 2026-04-25 18:03 | 19.70554 | -30.09534 | 41037 ft | 580 kts | 117° |
| 2026-04-25 18:04 | 19.67090 | -30.01862 | 41036 ft | 579 kts | 117° |
| 2026-04-25 18:04 | 19.63603 | -29.94152 | 41045 ft | 579 kts | 117° |
| 2026-04-25 18:05 | 19.60143 | -29.86511 | 41049 ft | 578 kts | 117° |
| 2026-04-25 18:05 | 19.56669 | -29.78849 | 41041 ft | 578 kts | 117° |
| 2026-04-25 18:06 | 19.53203 | -29.71216 | 41044 ft | 577 kts | 117° |
| 2026-04-25 18:06 | 19.49719 | -29.63555 | 41047 ft | 578 kts | 117° |
| 2026-04-25 18:07 | 19.46245 | -29.55925 | 41046 ft | 576 kts | 117° |
| 2026-04-25 18:07 | 19.42760 | -29.48280 | 41047 ft | 574 kts | 117° |
| 2026-04-25 18:08 | 19.39303 | -29.40707 | 41046 ft | 574 kts | 117° |
| 2026-04-25 18:08 | 19.35836 | -29.33125 | 41027 ft | 574 kts | 117° |
| 2026-04-25 18:09 | 19.32354 | -29.25519 | 41015 ft | 574 kts | 117° |
| 2026-04-25 18:09 | 19.28883 | -29.17946 | 41020 ft | 575 kts | 117° |
| 2026-04-25 18:10 | 19.25391 | -29.10335 | 41021 ft | 574 kts | 118° |
| 2026-04-25 18:10 | 19.21916 | -29.02775 | 41018 ft | 573 kts | 118° |
| 2026-04-25 18:11 | 19.18451 | -28.95244 | 41016 ft | 572 kts | 118° |
| 2026-04-25 18:11 | 19.14959 | -28.87665 | 41013 ft | 572 kts | 118° |
| 2026-04-25 18:12 | 19.11482 | -28.80132 | 41006 ft | 572 kts | 117° |
| 2026-04-25 18:12 | 19.08013 | -28.72621 | 41013 ft | 570 kts | 118° |
| 2026-04-25 18:13 | 19.04533 | -28.65100 | 41012 ft | 570 kts | 118° |
| 2026-04-25 18:13 | 19.01062 | -28.57606 | 41017 ft | 570 kts | 117° |
| 2026-04-25 18:14 | 18.95830 | -28.46327 | 41012 ft | 569 kts | 117° |
| 2026-04-25 18:14 | 18.92354 | -28.38848 | 41016 ft | 571 kts | 117° |
| 2026-04-25 18:15 | 18.88863 | -28.31344 | 40990 ft | 570 kts | 118° |
| 2026-04-25 18:15 | 18.85376 | -28.23858 | 41002 ft | 570 kts | 118° |
| 2026-04-25 18:16 | 18.81866 | -28.16334 | 41002 ft | 570 kts | 118° |
| 2026-04-25 18:17 | 18.76636 | -28.05140 | 41004 ft | 569 kts | 118° |
| 2026-04-25 18:17 | 18.73132 | -27.97651 | 41000 ft | 569 kts | 118° |
| 2026-04-25 18:18 | 18.69645 | -27.90207 | 40998 ft | 570 kts | 118° |
| 2026-04-25 18:18 | 18.66142 | -27.82743 | 40999 ft | 569 kts | 118° |
| 2026-04-25 18:19 | 18.62629 | -27.75262 | 41002 ft | 568 kts | 118° |
| 2026-04-25 18:19 | 18.59135 | -27.67834 | 40998 ft | 567 kts | 118° |
| 2026-04-25 18:20 | 18.55651 | -27.60434 | 40997 ft | 568 kts | 118° |
| 2026-04-25 18:20 | 18.52122 | -27.52949 | 41003 ft | 568 kts | 118° |
| 2026-04-25 18:21 | 18.48618 | -27.45527 | 41005 ft | 566 kts | 118° |
| 2026-04-25 18:21 | 18.45138 | -27.38164 | 41004 ft | 567 kts | 118° |
| 2026-04-25 18:22 | 18.41611 | -27.30711 | 40986 ft | 566 kts | 118° |
| 2026-04-25 18:22 | 18.38111 | -27.23323 | 40994 ft | 565 kts | 118° |
| 2026-04-25 18:23 | 18.34615 | -27.15953 | 40993 ft | 566 kts | 118° |
| 2026-04-25 18:23 | 18.31106 | -27.08565 | 40990 ft | 565 kts | 118° |
| 2026-04-25 18:24 | 18.27590 | -27.01171 | 40991 ft | 566 kts | 118° |
| 2026-04-25 18:24 | 18.24091 | -26.93821 | 40991 ft | 565 kts | 118° |
| 2026-04-25 18:25 | 18.20558 | -26.86412 | 40993 ft | 565 kts | 118° |
| 2026-04-25 18:25 | 18.17056 | -26.79074 | 40989 ft | 565 kts | 118° |
| 2026-04-25 18:26 | 18.13543 | -26.71719 | 40994 ft | 564 kts | 118° |
| 2026-04-25 18:26 | 18.10027 | -26.64370 | 40994 ft | 564 kts | 118° |
| 2026-04-25 18:27 | 18.06512 | -26.57031 | 40991 ft | 564 kts | 118° |
| 2026-04-25 18:27 | 18.02973 | -26.49653 | 40996 ft | 564 kts | 118° |
| 2026-04-25 18:28 | 17.99473 | -26.42362 | 40994 ft | 563 kts | 118° |
| 2026-04-25 18:28 | 17.95927 | -26.34987 | 40994 ft | 563 kts | 119° |
| 2026-04-25 18:29 | 17.90641 | -26.24003 | 40983 ft | 562 kts | 119° |
| 2026-04-25 18:30 | 17.83600 | -26.09405 | 40982 ft | 563 kts | 119° |
| 2026-04-25 18:30 | 17.80041 | -26.02048 | 40981 ft | 562 kts | 120° |
| 2026-04-25 18:31 | 17.76325 | -25.94894 | 40980 ft | 561 kts | 121° |
| 2026-04-25 18:31 | 17.72583 | -25.87707 | 40988 ft | 561 kts | 121° |
| 2026-04-25 18:32 | 17.68836 | -25.80514 | 40986 ft | 562 kts | 121° |
| 2026-04-25 18:32 | 17.65096 | -25.73341 | 40982 ft | 561 kts | 121° |
| 2026-04-25 18:33 | 17.61382 | -25.66229 | 40979 ft | 560 kts | 121° |
| 2026-04-25 18:33 | 17.57625 | -25.59040 | 40981 ft | 560 kts | 121° |
| 2026-04-25 18:34 | 17.53903 | -25.51925 | 40980 ft | 559 kts | 121° |
| 2026-04-25 18:34 | 17.50179 | -25.44816 | 40985 ft | 560 kts | 121° |
| 2026-04-25 18:35 | 17.46439 | -25.37684 | 40983 ft | 559 kts | 121° |
| 2026-04-25 18:35 | 17.42702 | -25.30564 | 40973 ft | 558 kts | 121° |
| 2026-04-25 18:36 | 17.38970 | -25.23463 | 40971 ft | 557 kts | 121° |
| 2026-04-25 18:36 | 17.35219 | -25.16333 | 40975 ft | 558 kts | 121° |
| 2026-04-25 18:37 | 17.31488 | -25.09246 | 40963 ft | 558 kts | 121° |
| 2026-04-25 18:37 | 17.27746 | -25.02149 | 40967 ft | 557 kts | 121° |
| 2026-04-25 18:38 | 17.24002 | -24.95059 | 40974 ft | 557 kts | 121° |
| 2026-04-25 18:38 | 17.20262 | -24.87978 | 40970 ft | 556 kts | 121° |
| 2026-04-25 18:39 | 17.16603 | -24.81061 | 40967 ft | 556 kts | 121° |
| 2026-04-25 18:39 | 17.12863 | -24.73995 | 40965 ft | 555 kts | 121° |
| 2026-04-25 18:40 | 17.09118 | -24.66930 | 40964 ft | 556 kts | 121° |
| 2026-04-25 18:40 | 17.05394 | -24.59912 | 40960 ft | 556 kts | 121° |
| 2026-04-25 18:41 | 17.01642 | -24.52848 | 40963 ft | 555 kts | 121° |
| 2026-04-25 18:41 | 16.97917 | -24.45840 | 40960 ft | 555 kts | 121° |
| 2026-04-25 18:42 | 16.95412 | -24.41132 | 40964 ft | 555 kts | 121° |
| 2026-04-25 18:42 | 16.90421 | -24.31764 | 40946 ft | 555 kts | 121° |
| 2026-04-25 18:43 | 16.86673 | -24.24739 | 40947 ft | 555 kts | 121° |
| 2026-04-25 18:43 | 16.82919 | -24.17705 | 40943 ft | 554 kts | 121° |
| 2026-04-25 18:44 | 16.79167 | -24.10683 | 40945 ft | 555 kts | 121° |
| 2026-04-25 18:44 | 16.75407 | -24.03658 | 40947 ft | 556 kts | 121° |
| 2026-04-25 18:45 | 16.71654 | -23.96650 | 40944 ft | 555 kts | 121° |
| 2026-04-25 18:45 | 16.67878 | -23.89605 | 40945 ft | 555 kts | 121° |
| 2026-04-25 18:46 | 16.64114 | -23.82594 | 40947 ft | 554 kts | 121° |
| 2026-04-25 18:46 | 16.60365 | -23.75615 | 40944 ft | 555 kts | 121° |
| 2026-04-25 18:47 | 16.56584 | -23.68583 | 40942 ft | 554 kts | 121° |
| 2026-04-25 18:47 | 16.52821 | -23.61590 | 40946 ft | 553 kts | 121° |
| 2026-04-25 18:48 | 16.49060 | -23.54614 | 40945 ft | 554 kts | 121° |
| 2026-04-25 18:48 | 16.45306 | -23.47652 | 40944 ft | 554 kts | 121° |
| 2026-04-25 18:49 | 16.41547 | -23.40689 | 40946 ft | 553 kts | 121° |
| 2026-04-25 18:49 | 16.37764 | -23.33689 | 40937 ft | 552 kts | 121° |
| 2026-04-25 18:50 | 16.34026 | -23.26779 | 40937 ft | 552 kts | 122° |
| 2026-04-25 18:50 | 16.30249 | -23.19805 | 40941 ft | 552 kts | 122° |
| 2026-04-25 18:51 | 16.27744 | -23.15183 | 40940 ft | 552 kts | 122° |
| 2026-04-25 18:51 | 16.22719 | -23.05921 | 40941 ft | 552 kts | 121° |
| 2026-04-25 18:52 | 16.18948 | -22.98976 | 40942 ft | 551 kts | 122° |
| 2026-04-25 18:52 | 16.15182 | -22.92050 | 40944 ft | 552 kts | 122° |
| 2026-04-25 18:53 | 16.11453 | -22.85104 | 40947 ft | 552 kts | 121° |
| 2026-04-25 18:53 | 16.07765 | -22.78157 | 40945 ft | 552 kts | 121° |
| 2026-04-25 18:54 | 16.02198 | -22.67683 | 40944 ft | 551 kts | 121° |
| 2026-04-25 18:55 | 15.98492 | -22.60718 | 40938 ft | 550 kts | 121° |
| 2026-04-25 18:55 | 15.94811 | -22.53810 | 40939 ft | 551 kts | 121° |
| 2026-04-25 18:56 | 15.91104 | -22.46858 | 40937 ft | 549 kts | 121° |
| 2026-04-25 18:56 | 15.87411 | -22.39938 | 40938 ft | 549 kts | 121° |
| 2026-04-25 18:57 | 15.83716 | -22.33021 | 40924 ft | 549 kts | 121° |
| 2026-04-25 18:57 | 15.79999 | -22.26071 | 40921 ft | 548 kts | 121° |
| 2026-04-25 18:58 | 15.76296 | -22.19153 | 40920 ft | 550 kts | 121° |
| 2026-04-25 18:58 | 15.70741 | -22.08789 | 40919 ft | 549 kts | 121° |
| 2026-04-25 18:59 | 15.63313 | -21.94952 | 40914 ft | 548 kts | 121° |
| 2026-04-25 19:00 | 15.57763 | -21.84631 | 40915 ft | 549 kts | 121° |
| 2026-04-25 19:01 | 15.52206 | -21.74311 | 40913 ft | 548 kts | 121° |
| 2026-04-25 19:01 | 15.48497 | -21.67431 | 40912 ft | 547 kts | 121° |
| 2026-04-25 19:02 | 15.42929 | -21.57113 | 40916 ft | 547 kts | 121° |
| 2026-04-25 19:03 | 15.38603 | -21.49108 | 40915 ft | 547 kts | 121° |
| 2026-04-25 19:03 | 15.33656 | -21.39964 | 40912 ft | 548 kts | 121° |
| 2026-04-25 19:04 | 15.28076 | -21.29664 | 40909 ft | 546 kts | 121° |
| 2026-04-25 19:05 | 15.20643 | -21.15964 | 40908 ft | 546 kts | 121° |
| 2026-04-25 19:06 | 15.16947 | -21.09162 | 40909 ft | 547 kts | 121° |
| 2026-04-25 19:06 | 15.11351 | -20.98873 | 40907 ft | 546 kts | 121° |
| 2026-04-25 19:07 | 15.05774 | -20.88635 | 40906 ft | 545 kts | 121° |
| 2026-04-25 19:08 | 15.00201 | -20.78417 | 40901 ft | 544 kts | 121° |
| 2026-04-25 19:09 | 14.93996 | -20.67055 | 40898 ft | 544 kts | 121° |
| 2026-04-25 19:10 | 14.87211 | -20.54652 | 40898 ft | 542 kts | 121° |
| 2026-04-25 19:10 | 14.83494 | -20.47866 | 40897 ft | 543 kts | 121° |
| 2026-04-25 19:11 | 14.79790 | -20.41109 | 40892 ft | 543 kts | 121° |
| 2026-04-25 19:11 | 14.76054 | -20.34298 | 40887 ft | 543 kts | 121° |
| 2026-04-25 19:12 | 14.72358 | -20.27570 | 40880 ft | 542 kts | 121° |
| 2026-04-25 19:12 | 14.68745 | -20.20733 | 40852 ft | 543 kts | 112° |
| 2026-04-25 19:13 | 14.66330 | -20.13338 | 40883 ft | 544 kts | 109° |
| 2026-04-25 19:13 | 14.63961 | -20.05934 | 40884 ft | 544 kts | 109° |
| 2026-04-25 19:14 | 14.61586 | -19.98527 | 40882 ft | 544 kts | 109° |
| 2026-04-25 19:14 | 14.59206 | -19.91113 | 40882 ft | 543 kts | 109° |
| 2026-04-25 19:15 | 14.56836 | -19.83739 | 40885 ft | 544 kts | 109° |
| 2026-04-25 19:15 | 14.54447 | -19.76313 | 40883 ft | 544 kts | 109° |
| 2026-04-25 19:16 | 14.52068 | -19.68928 | 40886 ft | 545 kts | 109° |
| 2026-04-25 19:16 | 14.49682 | -19.61529 | 40886 ft | 544 kts | 109° |
| 2026-04-25 19:17 | 14.47295 | -19.54139 | 40885 ft | 544 kts | 109° |
| 2026-04-25 19:17 | 14.44915 | -19.46776 | 40883 ft | 544 kts | 109° |
| 2026-04-25 19:18 | 14.42531 | -19.39411 | 40876 ft | 544 kts | 109° |
| 2026-04-25 19:18 | 14.40121 | -19.31974 | 40865 ft | 544 kts | 109° |
| 2026-04-25 19:19 | 14.37735 | -19.24620 | 40866 ft | 544 kts | 109° |
| 2026-04-25 19:19 | 14.35334 | -19.17231 | 40866 ft | 544 kts | 109° |
| 2026-04-25 19:20 | 14.32949 | -19.09896 | 40864 ft | 543 kts | 109° |
| 2026-04-25 19:20 | 14.31745 | -19.06197 | 39835 ft | 555 kts | 109° |
| 2026-04-25 19:20 | 14.30525 | -19.02455 | 38873 ft | 550 kts | 109° |
| 2026-04-25 19:20 | 14.29302 | -18.98701 | 38220 ft | 550 kts | 108° |
| 2026-04-25 19:21 | 14.28082 | -18.94957 | 37624 ft | 552 kts | 108° |
| 2026-04-25 19:21 | 14.25627 | -18.87434 | 36409 ft | 556 kts | 108° |
| 2026-04-25 19:21 | 14.24409 | -18.83708 | 35804 ft | 557 kts | 108° |
| 2026-04-25 19:22 | 14.23165 | -18.79900 | 35184 ft | 558 kts | 108° |
| 2026-04-25 19:22 | 14.21932 | -18.76130 | 34573 ft | 561 kts | 108° |
| 2026-04-25 19:22 | 14.19433 | -18.68495 | 33333 ft | 565 kts | 108° |
| 2026-04-25 19:23 | 14.18179 | -18.64669 | 32711 ft | 567 kts | 107° |
| 2026-04-25 19:23 | 14.15651 | -18.56957 | 31525 ft | 572 kts | 107° |
| 2026-04-25 19:23 | 14.14377 | -18.53072 | 30900 ft | 572 kts | 107° |
| 2026-04-25 19:24 | 14.13106 | -18.49205 | 30276 ft | 561 kts | 107° |
| 2026-04-25 19:24 | 14.11884 | -18.45491 | 29661 ft | 546 kts | 107° |
| 2026-04-25 19:24 | 14.09515 | -18.38281 | 28493 ft | 523 kts | 107° |
| 2026-04-25 19:25 | 14.07191 | -18.31218 | 27343 ft | 513 kts | 107° |
| 2026-04-25 19:25 | 14.06062 | -18.27792 | 26784 ft | 509 kts | 107° |
| 2026-04-25 19:25 | 14.04922 | -18.24335 | 26223 ft | 503 kts | 107° |
| 2026-04-25 19:26 | 14.03810 | -18.20963 | 25672 ft | 497 kts | 108° |
| 2026-04-25 19:26 | 14.02708 | -18.17623 | 25125 ft | 491 kts | 108° |
| 2026-04-25 19:26 | 14.01614 | -18.14311 | 24580 ft | 487 kts | 108° |
| 2026-04-25 19:26 | 14.00537 | -18.11048 | 24044 ft | 481 kts | 108° |
| 2026-04-25 19:27 | 13.99464 | -18.07801 | 23518 ft | 475 kts | 108° |
| 2026-04-25 19:27 | 13.99121 | -18.06764 | 23352 ft | 474 kts | 108° |
| 2026-04-25 19:27 | 13.98055 | -18.01300 | 22467 ft | 462 kts | 86° |
| 2026-04-25 19:27 | 13.98763 | -17.98151 | 21938 ft | 459 kts | 68° |
| 2026-04-25 19:28 | 14.00381 | -17.95347 | 21377 ft | 453 kts | 53° |
| 2026-04-25 19:28 | 14.02235 | -17.92746 | 20861 ft | 450 kts | 52° |
| 2026-04-25 19:28 | 14.04102 | -17.90170 | 20357 ft | 447 kts | 52° |
| 2026-04-25 19:28 | 14.05960 | -17.87623 | 19862 ft | 445 kts | 52° |
| 2026-04-25 19:29 | 14.07818 | -17.85081 | 19397 ft | 441 kts | 52° |
| 2026-04-25 19:29 | 14.09667 | -17.82548 | 18747 ft | 440 kts | 51° |
| 2026-04-25 19:29 | 14.11474 | -17.80076 | 17970 ft | 438 kts | 52° |
| 2026-04-25 19:29 | 14.13307 | -17.77567 | 17045 ft | 436 kts | 52° |
| 2026-04-25 19:30 | 14.15117 | -17.75089 | 16132 ft | 433 kts | 52° |
| 2026-04-25 19:30 | 14.16921 | -17.72620 | 15208 ft | 430 kts | 52° |
| 2026-04-25 19:30 | 14.18705 | -17.70176 | 14338 ft | 425 kts | 53° |
| 2026-04-25 19:30 | 14.20452 | -17.67782 | 13751 ft | 414 kts | 53° |
| 2026-04-25 19:31 | 14.22143 | -17.65463 | 13160 ft | 404 kts | 53° |
| 2026-04-25 19:31 | 14.23815 | -17.63168 | 12838 ft | 386 kts | 53° |
| 2026-04-25 19:31 | 14.25378 | -17.61023 | 12817 ft | 362 kts | 53° |
| 2026-04-25 19:31 | 14.26839 | -17.59018 | 12818 ft | 348 kts | 53° |
| 2026-04-25 19:32 | 14.28295 | -17.57020 | 12829 ft | 349 kts | 53° |
| 2026-04-25 19:32 | 14.29772 | -17.54992 | 12833 ft | 351 kts | 53° |
| 2026-04-25 19:32 | 14.31247 | -17.52966 | 12828 ft | 354 kts | 53° |
| 2026-04-25 19:32 | 14.31729 | -17.52304 | 12829 ft | 354 kts | 53° |
| 2026-04-25 19:33 | 14.34139 | -17.48994 | 12825 ft | 330 kts | 53° |
| 2026-04-25 19:33 | 14.35476 | -17.47149 | 12819 ft | 315 kts | 55° |
| 2026-04-25 19:33 | 14.36337 | -17.45078 | 12494 ft | 318 kts | 82° |
| 2026-04-25 19:33 | 14.36131 | -17.42872 | 12027 ft | 313 kts | 111° |
| 2026-04-25 19:34 | 14.35064 | -17.40943 | 11572 ft | 309 kts | 124° |
| 2026-04-25 19:34 | 14.33855 | -17.39080 | 11088 ft | 309 kts | 124° |
| 2026-04-25 19:34 | 14.32660 | -17.37245 | 10610 ft | 309 kts | 125° |
| 2026-04-25 19:34 | 14.31473 | -17.35423 | 10133 ft | 308 kts | 124° |
| 2026-04-25 19:35 | 14.30278 | -17.33599 | 9653 ft | 307 kts | 125° |
| 2026-04-25 19:35 | 14.29071 | -17.31766 | 9168 ft | 307 kts | 125° |
| 2026-04-25 19:35 | 14.27883 | -17.29975 | 8640 ft | 301 kts | 125° |
| 2026-04-25 19:35 | 14.26724 | -17.28244 | 8143 ft | 287 kts | 124° |
| 2026-04-25 19:36 | 14.25593 | -17.26591 | 7651 ft | 280 kts | 125° |
| 2026-04-25 19:36 | 14.24473 | -17.24975 | 7169 ft | 277 kts | 124° |
| 2026-04-25 19:36 | 14.23352 | -17.23378 | 6684 ft | 270 kts | 124° |
| 2026-04-25 19:36 | 14.22269 | -17.21850 | 6373 ft | 259 kts | 125° |
| 2026-04-25 19:37 | 14.21198 | -17.20358 | 5879 ft | 259 kts | 125° |
| 2026-04-25 19:37 | 14.20133 | -17.18895 | 5401 ft | 258 kts | 125° |
| 2026-04-25 19:37 | 14.19384 | -17.17265 | 4878 ft | 253 kts | 97° |
| 2026-04-25 19:37 | 14.19647 | -17.15525 | 4375 ft | 246 kts | 66° |
| 2026-04-25 19:38 | 14.20312 | -17.13912 | 4020 ft | 240 kts | 65° |
| 2026-04-25 19:38 | 14.20966 | -17.12334 | 4000 ft | 241 kts | 65° |
| 2026-04-25 19:38 | 14.21726 | -17.10800 | 3973 ft | 241 kts | 50° |
| 2026-04-25 19:38 | 14.23130 | -17.09894 | 3820 ft | 240 kts | 18° |
| 2026-04-25 19:39 | 14.24737 | -17.09449 | 3608 ft | 239 kts | 15° |
| 2026-04-25 19:39 | 14.26358 | -17.09009 | 3363 ft | 236 kts | 15° |
| 2026-04-25 19:39 | 14.27947 | -17.08579 | 3116 ft | 234 kts | 15° |
| 2026-04-25 19:39 | 14.29507 | -17.08153 | 3000 ft | 228 kts | 15° |
| 2026-04-25 19:40 | 14.31025 | -17.07736 | 2993 ft | 221 kts | 15° |
| 2026-04-25 19:40 | 14.32510 | -17.07297 | 2996 ft | 221 kts | 16° |
| 2026-04-25 19:40 | 14.34024 | -17.07001 | 2986 ft | 220 kts | 2° |
| 2026-04-25 19:40 | 14.35562 | -17.07000 | 3000 ft | 223 kts | 1° |
| 2026-04-25 19:41 | 14.37130 | -17.07009 | 2995 ft | 224 kts | 0° |
| 2026-04-25 19:41 | 14.38684 | -17.07020 | 2994 ft | 222 kts | 0° |
| 2026-04-25 19:41 | 14.40245 | -17.07032 | 2997 ft | 222 kts | 0° |
| 2026-04-25 19:41 | 14.40764 | -17.07037 | 2996 ft | 223 kts | 0° |
| 2026-04-25 19:42 | 14.43343 | -17.07060 | 3001 ft | 221 kts | 0° |
| 2026-04-25 19:42 | 14.44883 | -17.07074 | 3000 ft | 221 kts | 0° |
| 2026-04-25 19:42 | 14.46443 | -17.07088 | 3001 ft | 223 kts | 0° |
| 2026-04-25 19:42 | 14.47989 | -17.07103 | 3000 ft | 222 kts | 0° |
| 2026-04-25 19:43 | 14.49488 | -17.07118 | 2987 ft | 204 kts | 0° |
| 2026-04-25 19:43 | 14.50844 | -17.07134 | 2984 ft | 186 kts | 0° |
| 2026-04-25 19:43 | 14.52103 | -17.07150 | 2987 ft | 178 kts | 0° |
| 2026-04-25 19:43 | 14.53348 | -17.07165 | 2994 ft | 178 kts | 1° |
| 2026-04-25 19:44 | 14.54588 | -17.07168 | 2802 ft | 183 kts | 1° |
| 2026-04-25 19:44 | 14.55882 | -17.07178 | 2388 ft | 186 kts | 0° |
| 2026-04-25 19:44 | 14.57133 | -17.07183 | 2060 ft | 172 kts | 0° |
| 2026-04-25 19:44 | 14.58300 | -17.07177 | 1699 ft | 165 kts | 1° |
| 2026-04-25 19:45 | 14.59437 | -17.07167 | 1427 ft | 162 kts | 0° |
| 2026-04-25 19:45 | 14.60538 | -17.07212 | 1185 ft | 153 kts | 358° |
| 2026-04-25 19:45 | 14.61578 | -17.07256 | 1067 ft | 145 kts | 358° |
| 2026-04-25 19:45 | 14.62542 | -17.07261 | 824 ft | 133 kts | 359° |
| 2026-04-25 19:46 | 14.63472 | -17.07253 | 684 ft | 130 kts | 359° |
| 2026-04-25 19:46 | 14.64390 | -17.07260 | 535 ft | 131 kts | 358° |
| 2026-04-25 19:46 | 14.65301 | -17.07275 | 386 ft | 130 kts | 357° |
| 2026-04-25 19:46 | 14.66192 | -17.07281 | 304 ft | 124 kts | 357° |
| 2026-04-25 19:47 | 14.66964 | -17.07291 | 294 ft | 93 kts | 1° |
| 2026-04-25 19:47 | 14.67408 | -17.07289 | 294 ft | 41 kts | 0° |
| 2026-04-25 19:47 | 14.67667 | -17.07254 | 294 ft | 34 kts | 18° |
| 2026-04-25 19:47 | 14.67781 | -17.07203 | 294 ft | 9 kts | 28° |
| 2026-04-25 19:48 | 14.67834 | -17.07173 | 294 ft | 8 kts | 30° |
| 2026-04-25 19:48 | 14.67870 | -17.07152 | 294 ft | 0 kts | 29° |
| 2026-04-25 19:49 | 14.67890 | -17.07140 | 294 ft | 8 kts | 27° |
| 2026-04-25 19:49 | 14.67912 | -17.07129 | 294 ft | 12 kts | 25° |
| 2026-04-25 19:49 | 14.68055 | -17.07062 | 294 ft | 13 kts | 68° |
| 2026-04-25 19:49 | 14.68082 | -17.06975 | 294 ft | 12 kts | 75° |
| 2026-04-25 19:50 | 14.68086 | -17.06875 | 294 ft | 1 kts | 89° |
| 2026-04-25 19:50 | 14.68086 | -17.06872 | 294 ft | 0 kts | 89° |